<?xml version="1.0" encoding="UTF-8" standalone="no" ?>
<gpx xmlns="http://www.topografix.com/GPX/1/1" xmlns:xsi="http://www.w3.org/2001/XMLSchema-instance" xsi:schemaLocation="http://www.topografix.com/GPX/1/1 http://www.topografix.com/GPX/1/1/gpx.xsd" version="1.1" creator="VisuGPX - https://www.visugpx.com">
  <metadata>
    <name>Pont-Croix/Goyen</name>
    <desc><![CDATA[Parking et départ Place du Champ de Foire à Pont-Croix. Descendre la Grande rue Chère, traverser le Goyen, et prendre la première rte à droite direction Trohonan, puis suivre le balisage PR. Une agréable balade avec de beaux panorama sur Audierne et la vallée du Goyen, le retour à travers une campagne agréable et variée.
ch]]></desc>
  </metadata>
  <trk>
    <name><![CDATA[Pont-Croix/Goyen19-11-15 16:52:58]]></name>
    <trkseg>
      <trkpt lat="48.04084" lon="-4.48669">
        <ele>40.99</ele>
        <time>2015-11-19T12:50:51Z</time>
      </trkpt>
      <trkpt lat="48.04085" lon="-4.48665">
        <ele>37.15</ele>
        <time>2015-11-19T12:51:20Z</time>
      </trkpt>
      <trkpt lat="48.04086" lon="-4.48665">
        <ele>38.11</ele>
        <time>2015-11-19T12:51:53Z</time>
      </trkpt>
      <trkpt lat="48.04084" lon="-4.48665">
        <ele>34.74</ele>
        <time>2015-11-19T12:52:12Z</time>
      </trkpt>
      <trkpt lat="48.04084" lon="-4.48667">
        <ele>35.23</ele>
        <time>2015-11-19T12:52:14Z</time>
      </trkpt>
      <trkpt lat="48.0408" lon="-4.48682">
        <ele>33.78</ele>
        <time>2015-11-19T12:52:26Z</time>
      </trkpt>
      <trkpt lat="48.04079" lon="-4.48699">
        <ele>33.78</ele>
        <time>2015-11-19T12:52:36Z</time>
      </trkpt>
      <trkpt lat="48.04068" lon="-4.48709">
        <ele>33.3</ele>
        <time>2015-11-19T12:52:48Z</time>
      </trkpt>
      <trkpt lat="48.04063" lon="-4.48708">
        <ele>31.38</ele>
        <time>2015-11-19T12:52:57Z</time>
      </trkpt>
      <trkpt lat="48.04062" lon="-4.48708">
        <ele>30.9</ele>
        <time>2015-11-19T12:53:08Z</time>
      </trkpt>
      <trkpt lat="48.04056" lon="-4.48712">
        <ele>30.42</ele>
        <time>2015-11-19T12:53:24Z</time>
      </trkpt>
      <trkpt lat="48.04053" lon="-4.48714">
        <ele>30.42</ele>
        <time>2015-11-19T12:53:36Z</time>
      </trkpt>
      <trkpt lat="48.04052" lon="-4.48715">
        <ele>30.9</ele>
        <time>2015-11-19T12:53:52Z</time>
      </trkpt>
      <trkpt lat="48.04051" lon="-4.48716">
        <ele>31.38</ele>
        <time>2015-11-19T12:54:10Z</time>
      </trkpt>
      <trkpt lat="48.04045" lon="-4.48719">
        <ele>30.9</ele>
        <time>2015-11-19T12:54:21Z</time>
      </trkpt>
      <trkpt lat="48.04038" lon="-4.48717">
        <ele>29.46</ele>
        <time>2015-11-19T12:54:29Z</time>
      </trkpt>
      <trkpt lat="48.04037" lon="-4.48716">
        <ele>28.98</ele>
        <time>2015-11-19T12:54:31Z</time>
      </trkpt>
      <trkpt lat="48.04027" lon="-4.48718">
        <ele>25.61</ele>
        <time>2015-11-19T12:54:44Z</time>
      </trkpt>
      <trkpt lat="48.04014" lon="-4.48713">
        <ele>24.65</ele>
        <time>2015-11-19T12:54:55Z</time>
      </trkpt>
      <trkpt lat="48.04006" lon="-4.48712">
        <ele>23.69</ele>
        <time>2015-11-19T12:55:07Z</time>
      </trkpt>
      <trkpt lat="48.03995" lon="-4.48707">
        <ele>22.73</ele>
        <time>2015-11-19T12:55:18Z</time>
      </trkpt>
      <trkpt lat="48.03987" lon="-4.48707">
        <ele>20.32</ele>
        <time>2015-11-19T12:55:30Z</time>
      </trkpt>
      <trkpt lat="48.03984" lon="-4.48711">
        <ele>16.96</ele>
        <time>2015-11-19T12:55:39Z</time>
      </trkpt>
      <trkpt lat="48.03982" lon="-4.48714">
        <ele>16.96</ele>
        <time>2015-11-19T12:55:43Z</time>
      </trkpt>
      <trkpt lat="48.03975" lon="-4.4872">
        <ele>19.36</ele>
        <time>2015-11-19T12:55:53Z</time>
      </trkpt>
      <trkpt lat="48.03968" lon="-4.48724">
        <ele>19.84</ele>
        <time>2015-11-19T12:56:04Z</time>
      </trkpt>
      <trkpt lat="48.03961" lon="-4.48731">
        <ele>18.4</ele>
        <time>2015-11-19T12:56:16Z</time>
      </trkpt>
      <trkpt lat="48.03956" lon="-4.48737">
        <ele>15.52</ele>
        <time>2015-11-19T12:56:27Z</time>
      </trkpt>
      <trkpt lat="48.03949" lon="-4.4874">
        <ele>13.12</ele>
        <time>2015-11-19T12:56:40Z</time>
      </trkpt>
      <trkpt lat="48.03949" lon="-4.4874">
        <ele>13.12</ele>
        <time>2015-11-19T12:56:42Z</time>
      </trkpt>
      <trkpt lat="48.03943" lon="-4.48741">
        <ele>12.15</ele>
        <time>2015-11-19T12:56:49Z</time>
      </trkpt>
      <trkpt lat="48.03933" lon="-4.48744">
        <ele>6.87</ele>
        <time>2015-11-19T12:57:01Z</time>
      </trkpt>
      <trkpt lat="48.03932" lon="-4.48758">
        <ele>0.62</ele>
        <time>2015-11-19T12:57:14Z</time>
      </trkpt>
      <trkpt lat="48.0393" lon="-4.4876">
        <ele>0.14</ele>
        <time>2015-11-19T12:57:16Z</time>
      </trkpt>
      <trkpt lat="48.03915" lon="-4.48761">
        <ele>-1.3</ele>
        <time>2015-11-19T12:57:30Z</time>
      </trkpt>
      <trkpt lat="48.03909" lon="-4.48757">
        <ele>-1.3</ele>
        <time>2015-11-19T12:57:35Z</time>
      </trkpt>
      <trkpt lat="48.03906" lon="-4.48756">
        <ele>-1.3</ele>
        <time>2015-11-19T12:57:39Z</time>
      </trkpt>
      <trkpt lat="48.03902" lon="-4.48752">
        <ele>-2.27</ele>
        <time>2015-11-19T12:57:43Z</time>
      </trkpt>
      <trkpt lat="48.03886" lon="-4.48736">
        <ele>0.62</ele>
        <time>2015-11-19T12:57:57Z</time>
      </trkpt>
      <trkpt lat="48.03874" lon="-4.48719">
        <ele>2.54</ele>
        <time>2015-11-19T12:58:12Z</time>
      </trkpt>
      <trkpt lat="48.03858" lon="-4.48693">
        <ele>3.02</ele>
        <time>2015-11-19T12:58:32Z</time>
      </trkpt>
      <trkpt lat="48.03852" lon="-4.48684">
        <ele>3.5</ele>
        <time>2015-11-19T12:58:39Z</time>
      </trkpt>
      <trkpt lat="48.03847" lon="-4.48675">
        <ele>5.42</ele>
        <time>2015-11-19T12:58:47Z</time>
      </trkpt>
      <trkpt lat="48.03846" lon="-4.48672">
        <ele>4.94</ele>
        <time>2015-11-19T12:58:50Z</time>
      </trkpt>
      <trkpt lat="48.03836" lon="-4.48675">
        <ele>4.94</ele>
        <time>2015-11-19T12:59:02Z</time>
      </trkpt>
      <trkpt lat="48.03835" lon="-4.48672">
        <ele>5.42</ele>
        <time>2015-11-19T12:59:07Z</time>
      </trkpt>
      <trkpt lat="48.03826" lon="-4.48657">
        <ele>3.98</ele>
        <time>2015-11-19T12:59:18Z</time>
      </trkpt>
      <trkpt lat="48.03824" lon="-4.48654">
        <ele>3.5</ele>
        <time>2015-11-19T12:59:20Z</time>
      </trkpt>
      <trkpt lat="48.0382" lon="-4.48652">
        <ele>2.54</ele>
        <time>2015-11-19T12:59:23Z</time>
      </trkpt>
      <trkpt lat="48.03817" lon="-4.48646">
        <ele>1.58</ele>
        <time>2015-11-19T12:59:27Z</time>
      </trkpt>
      <trkpt lat="48.03814" lon="-4.48643">
        <ele>0.62</ele>
        <time>2015-11-19T12:59:30Z</time>
      </trkpt>
      <trkpt lat="48.03809" lon="-4.48639">
        <ele>-0.34</ele>
        <time>2015-11-19T12:59:35Z</time>
      </trkpt>
      <trkpt lat="48.03803" lon="-4.48638">
        <ele>0.14</ele>
        <time>2015-11-19T12:59:41Z</time>
      </trkpt>
      <trkpt lat="48.038" lon="-4.48644">
        <ele>0.62</ele>
        <time>2015-11-19T12:59:45Z</time>
      </trkpt>
      <trkpt lat="48.03798" lon="-4.48662">
        <ele>0.62</ele>
        <time>2015-11-19T12:59:56Z</time>
      </trkpt>
      <trkpt lat="48.03792" lon="-4.4868">
        <ele>2.06</ele>
        <time>2015-11-19T13:00:06Z</time>
      </trkpt>
      <trkpt lat="48.0379" lon="-4.48692">
        <ele>3.02</ele>
        <time>2015-11-19T13:00:13Z</time>
      </trkpt>
      <trkpt lat="48.03789" lon="-4.48698">
        <ele>3.5</ele>
        <time>2015-11-19T13:00:16Z</time>
      </trkpt>
      <trkpt lat="48.03784" lon="-4.48725">
        <ele>2.54</ele>
        <time>2015-11-19T13:00:31Z</time>
      </trkpt>
      <trkpt lat="48.03783" lon="-4.48738">
        <ele>2.06</ele>
        <time>2015-11-19T13:00:43Z</time>
      </trkpt>
      <trkpt lat="48.03782" lon="-4.48748">
        <ele>2.54</ele>
        <time>2015-11-19T13:00:55Z</time>
      </trkpt>
      <trkpt lat="48.03781" lon="-4.48764">
        <ele>0.14</ele>
        <time>2015-11-19T13:01:07Z</time>
      </trkpt>
      <trkpt lat="48.0378" lon="-4.48773">
        <ele>-1.79</ele>
        <time>2015-11-19T13:01:12Z</time>
      </trkpt>
      <trkpt lat="48.03781" lon="-4.48782">
        <ele>-2.75</ele>
        <time>2015-11-19T13:01:18Z</time>
      </trkpt>
      <trkpt lat="48.03782" lon="-4.48786">
        <ele>-2.75</ele>
        <time>2015-11-19T13:01:20Z</time>
      </trkpt>
      <trkpt lat="48.03777" lon="-4.48812">
        <ele>-2.75</ele>
        <time>2015-11-19T13:01:32Z</time>
      </trkpt>
      <trkpt lat="48.03777" lon="-4.48818">
        <ele>-2.27</ele>
        <time>2015-11-19T13:01:36Z</time>
      </trkpt>
      <trkpt lat="48.03776" lon="-4.48825">
        <ele>-2.27</ele>
        <time>2015-11-19T13:01:39Z</time>
      </trkpt>
      <trkpt lat="48.03777" lon="-4.48828">
        <ele>-2.27</ele>
        <time>2015-11-19T13:01:41Z</time>
      </trkpt>
      <trkpt lat="48.03777" lon="-4.4884">
        <ele>-2.75</ele>
        <time>2015-11-19T13:01:56Z</time>
      </trkpt>
      <trkpt lat="48.03777" lon="-4.48858">
        <ele>-1.79</ele>
        <time>2015-11-19T13:02:05Z</time>
      </trkpt>
      <trkpt lat="48.03776" lon="-4.48863">
        <ele>-2.27</ele>
        <time>2015-11-19T13:02:08Z</time>
      </trkpt>
      <trkpt lat="48.03775" lon="-4.48883">
        <ele>-0.34</ele>
        <time>2015-11-19T13:02:18Z</time>
      </trkpt>
      <trkpt lat="48.03776" lon="-4.48905">
        <ele>-1.3</ele>
        <time>2015-11-19T13:02:30Z</time>
      </trkpt>
      <trkpt lat="48.03778" lon="-4.48912">
        <ele>-3.23</ele>
        <time>2015-11-19T13:02:34Z</time>
      </trkpt>
      <trkpt lat="48.03779" lon="-4.48916">
        <ele>-4.19</ele>
        <time>2015-11-19T13:02:36Z</time>
      </trkpt>
      <trkpt lat="48.03782" lon="-4.48931">
        <ele>-7.55</ele>
        <time>2015-11-19T13:02:45Z</time>
      </trkpt>
      <trkpt lat="48.03783" lon="-4.48943">
        <ele>-9.96</ele>
        <time>2015-11-19T13:02:52Z</time>
      </trkpt>
      <trkpt lat="48.03782" lon="-4.48965">
        <ele>-8.51</ele>
        <time>2015-11-19T13:03:05Z</time>
      </trkpt>
      <trkpt lat="48.0378" lon="-4.48998">
        <ele>-0.82</ele>
        <time>2015-11-19T13:03:19Z</time>
      </trkpt>
      <trkpt lat="48.0378" lon="-4.49009">
        <ele>-0.34</ele>
        <time>2015-11-19T13:03:25Z</time>
      </trkpt>
      <trkpt lat="48.03778" lon="-4.4903">
        <ele>-1.3</ele>
        <time>2015-11-19T13:03:38Z</time>
      </trkpt>
      <trkpt lat="48.03773" lon="-4.49037">
        <ele>-1.3</ele>
        <time>2015-11-19T13:03:44Z</time>
      </trkpt>
      <trkpt lat="48.0376" lon="-4.49055">
        <ele>-2.27</ele>
        <time>2015-11-19T13:03:58Z</time>
      </trkpt>
      <trkpt lat="48.03747" lon="-4.49066">
        <ele>1.1</ele>
        <time>2015-11-19T13:04:12Z</time>
      </trkpt>
      <trkpt lat="48.03745" lon="-4.49067">
        <ele>2.06</ele>
        <time>2015-11-19T13:04:23Z</time>
      </trkpt>
      <trkpt lat="48.03754" lon="-4.49061">
        <ele>2.06</ele>
        <time>2015-11-19T13:04:35Z</time>
      </trkpt>
      <trkpt lat="48.03757" lon="-4.49062">
        <ele>2.06</ele>
        <time>2015-11-19T13:04:37Z</time>
      </trkpt>
      <trkpt lat="48.0376" lon="-4.49082">
        <ele>1.58</ele>
        <time>2015-11-19T13:04:51Z</time>
      </trkpt>
      <trkpt lat="48.03768" lon="-4.49095">
        <ele>0.62</ele>
        <time>2015-11-19T13:05:04Z</time>
      </trkpt>
      <trkpt lat="48.03781" lon="-4.49106">
        <ele>0.14</ele>
        <time>2015-11-19T13:05:17Z</time>
      </trkpt>
      <trkpt lat="48.03789" lon="-4.49106">
        <ele>0.14</ele>
        <time>2015-11-19T13:05:27Z</time>
      </trkpt>
      <trkpt lat="48.03798" lon="-4.49104">
        <ele>0.14</ele>
        <time>2015-11-19T13:05:39Z</time>
      </trkpt>
      <trkpt lat="48.03799" lon="-4.49106">
        <ele>0.14</ele>
        <time>2015-11-19T13:05:41Z</time>
      </trkpt>
      <trkpt lat="48.03808" lon="-4.49114">
        <ele>0.62</ele>
        <time>2015-11-19T13:05:54Z</time>
      </trkpt>
      <trkpt lat="48.03817" lon="-4.49128">
        <ele>0.14</ele>
        <time>2015-11-19T13:06:12Z</time>
      </trkpt>
      <trkpt lat="48.03833" lon="-4.49139">
        <ele>1.1</ele>
        <time>2015-11-19T13:06:18Z</time>
      </trkpt>
      <trkpt lat="48.03846" lon="-4.49165">
        <ele>3.02</ele>
        <time>2015-11-19T13:06:33Z</time>
      </trkpt>
      <trkpt lat="48.03851" lon="-4.4918">
        <ele>1.58</ele>
        <time>2015-11-19T13:06:43Z</time>
      </trkpt>
      <trkpt lat="48.03852" lon="-4.49198">
        <ele>-0.82</ele>
        <time>2015-11-19T13:06:54Z</time>
      </trkpt>
      <trkpt lat="48.03854" lon="-4.49213">
        <ele>-5.15</ele>
        <time>2015-11-19T13:07:05Z</time>
      </trkpt>
      <trkpt lat="48.03853" lon="-4.49219">
        <ele>-6.59</ele>
        <time>2015-11-19T13:07:08Z</time>
      </trkpt>
      <trkpt lat="48.03849" lon="-4.49244">
        <ele>-5.15</ele>
        <time>2015-11-19T13:07:21Z</time>
      </trkpt>
      <trkpt lat="48.03848" lon="-4.4925">
        <ele>-5.63</ele>
        <time>2015-11-19T13:07:25Z</time>
      </trkpt>
      <trkpt lat="48.03841" lon="-4.49272">
        <ele>-0.82</ele>
        <time>2015-11-19T13:07:36Z</time>
      </trkpt>
      <trkpt lat="48.0384" lon="-4.49274">
        <ele>-0.34</ele>
        <time>2015-11-19T13:07:37Z</time>
      </trkpt>
      <trkpt lat="48.0384" lon="-4.49278">
        <ele>-0.82</ele>
        <time>2015-11-19T13:07:39Z</time>
      </trkpt>
      <trkpt lat="48.03839" lon="-4.49284">
        <ele>-2.27</ele>
        <time>2015-11-19T13:07:43Z</time>
      </trkpt>
      <trkpt lat="48.0384" lon="-4.49293">
        <ele>-6.11</ele>
        <time>2015-11-19T13:07:47Z</time>
      </trkpt>
      <trkpt lat="48.03838" lon="-4.493">
        <ele>-9.48</ele>
        <time>2015-11-19T13:07:51Z</time>
      </trkpt>
      <trkpt lat="48.03833" lon="-4.49309">
        <ele>-11.4</ele>
        <time>2015-11-19T13:07:57Z</time>
      </trkpt>
      <trkpt lat="48.03833" lon="-4.49314">
        <ele>-13.32</ele>
        <time>2015-11-19T13:08:00Z</time>
      </trkpt>
      <trkpt lat="48.03831" lon="-4.49319">
        <ele>-14.76</ele>
        <time>2015-11-19T13:08:03Z</time>
      </trkpt>
      <trkpt lat="48.0383" lon="-4.49324">
        <ele>-16.21</ele>
        <time>2015-11-19T13:08:06Z</time>
      </trkpt>
      <trkpt lat="48.03826" lon="-4.49331">
        <ele>-17.65</ele>
        <time>2015-11-19T13:08:11Z</time>
      </trkpt>
      <trkpt lat="48.03823" lon="-4.49334">
        <ele>-17.65</ele>
        <time>2015-11-19T13:08:14Z</time>
      </trkpt>
      <trkpt lat="48.03811" lon="-4.49343">
        <ele>-17.17</ele>
        <time>2015-11-19T13:08:28Z</time>
      </trkpt>
      <trkpt lat="48.0381" lon="-4.49344">
        <ele>-17.17</ele>
        <time>2015-11-19T13:08:29Z</time>
      </trkpt>
      <trkpt lat="48.03802" lon="-4.4935">
        <ele>-15.72</ele>
        <time>2015-11-19T13:08:36Z</time>
      </trkpt>
      <trkpt lat="48.03783" lon="-4.49356">
        <ele>-9.96</ele>
        <time>2015-11-19T13:08:51Z</time>
      </trkpt>
      <trkpt lat="48.03761" lon="-4.4936">
        <ele>-5.63</ele>
        <time>2015-11-19T13:09:07Z</time>
      </trkpt>
      <trkpt lat="48.03734" lon="-4.49363">
        <ele>9.27</ele>
        <time>2015-11-19T13:09:24Z</time>
      </trkpt>
      <trkpt lat="48.03716" lon="-4.49366">
        <ele>13.6</ele>
        <time>2015-11-19T13:09:39Z</time>
      </trkpt>
      <trkpt lat="48.03695" lon="-4.49376">
        <ele>16.48</ele>
        <time>2015-11-19T13:09:56Z</time>
      </trkpt>
      <trkpt lat="48.03672" lon="-4.49385">
        <ele>17.92</ele>
        <time>2015-11-19T13:10:14Z</time>
      </trkpt>
      <trkpt lat="48.03653" lon="-4.49389">
        <ele>17.92</ele>
        <time>2015-11-19T13:10:30Z</time>
      </trkpt>
      <trkpt lat="48.03649" lon="-4.49391">
        <ele>18.88</ele>
        <time>2015-11-19T13:10:33Z</time>
      </trkpt>
      <trkpt lat="48.03634" lon="-4.49395">
        <ele>19.36</ele>
        <time>2015-11-19T13:10:46Z</time>
      </trkpt>
      <trkpt lat="48.03618" lon="-4.49397">
        <ele>19.36</ele>
        <time>2015-11-19T13:10:59Z</time>
      </trkpt>
      <trkpt lat="48.03595" lon="-4.494">
        <ele>17.92</ele>
        <time>2015-11-19T13:11:15Z</time>
      </trkpt>
      <trkpt lat="48.03575" lon="-4.49402">
        <ele>18.4</ele>
        <time>2015-11-19T13:11:30Z</time>
      </trkpt>
      <trkpt lat="48.03561" lon="-4.49406">
        <ele>19.84</ele>
        <time>2015-11-19T13:11:42Z</time>
      </trkpt>
      <trkpt lat="48.03546" lon="-4.49415">
        <ele>22.25</ele>
        <time>2015-11-19T13:11:55Z</time>
      </trkpt>
      <trkpt lat="48.03537" lon="-4.49442">
        <ele>16</ele>
        <time>2015-11-19T13:12:13Z</time>
      </trkpt>
      <trkpt lat="48.03538" lon="-4.49462">
        <ele>11.19</ele>
        <time>2015-11-19T13:12:32Z</time>
      </trkpt>
      <trkpt lat="48.03534" lon="-4.49502">
        <ele>9.27</ele>
        <time>2015-11-19T13:12:49Z</time>
      </trkpt>
      <trkpt lat="48.0353" lon="-4.49521">
        <ele>10.71</ele>
        <time>2015-11-19T13:12:57Z</time>
      </trkpt>
      <trkpt lat="48.03526" lon="-4.49541">
        <ele>11.67</ele>
        <time>2015-11-19T13:13:09Z</time>
      </trkpt>
      <trkpt lat="48.03522" lon="-4.49562">
        <ele>14.08</ele>
        <time>2015-11-19T13:13:23Z</time>
      </trkpt>
      <trkpt lat="48.03521" lon="-4.49562">
        <ele>14.56</ele>
        <time>2015-11-19T13:13:24Z</time>
      </trkpt>
      <trkpt lat="48.03517" lon="-4.49567">
        <ele>16.48</ele>
        <time>2015-11-19T13:13:28Z</time>
      </trkpt>
      <trkpt lat="48.03512" lon="-4.49567">
        <ele>20.32</ele>
        <time>2015-11-19T13:13:32Z</time>
      </trkpt>
      <trkpt lat="48.03504" lon="-4.49565">
        <ele>25.13</ele>
        <time>2015-11-19T13:13:38Z</time>
      </trkpt>
      <trkpt lat="48.03486" lon="-4.49555">
        <ele>28.02</ele>
        <time>2015-11-19T13:13:54Z</time>
      </trkpt>
      <trkpt lat="48.03479" lon="-4.49551">
        <ele>28.98</ele>
        <time>2015-11-19T13:14:01Z</time>
      </trkpt>
      <trkpt lat="48.03463" lon="-4.49544">
        <ele>31.38</ele>
        <time>2015-11-19T13:14:14Z</time>
      </trkpt>
      <trkpt lat="48.03446" lon="-4.4953">
        <ele>31.86</ele>
        <time>2015-11-19T13:14:28Z</time>
      </trkpt>
      <trkpt lat="48.03441" lon="-4.49524">
        <ele>31.86</ele>
        <time>2015-11-19T13:14:34Z</time>
      </trkpt>
      <trkpt lat="48.03429" lon="-4.49511">
        <ele>29.94</ele>
        <time>2015-11-19T13:14:47Z</time>
      </trkpt>
      <trkpt lat="48.03425" lon="-4.49509">
        <ele>28.98</ele>
        <time>2015-11-19T13:14:51Z</time>
      </trkpt>
      <trkpt lat="48.03418" lon="-4.49504">
        <ele>28.98</ele>
        <time>2015-11-19T13:14:57Z</time>
      </trkpt>
      <trkpt lat="48.03413" lon="-4.49502">
        <ele>28.5</ele>
        <time>2015-11-19T13:15:01Z</time>
      </trkpt>
      <trkpt lat="48.03405" lon="-4.49497">
        <ele>27.53</ele>
        <time>2015-11-19T13:15:09Z</time>
      </trkpt>
      <trkpt lat="48.0339" lon="-4.49492">
        <ele>31.38</ele>
        <time>2015-11-19T13:15:23Z</time>
      </trkpt>
      <trkpt lat="48.03386" lon="-4.4949">
        <ele>32.34</ele>
        <time>2015-11-19T13:15:27Z</time>
      </trkpt>
      <trkpt lat="48.03371" lon="-4.49482">
        <ele>35.23</ele>
        <time>2015-11-19T13:15:42Z</time>
      </trkpt>
      <trkpt lat="48.03364" lon="-4.49478">
        <ele>37.15</ele>
        <time>2015-11-19T13:15:48Z</time>
      </trkpt>
      <trkpt lat="48.03349" lon="-4.49476">
        <ele>39.07</ele>
        <time>2015-11-19T13:16:03Z</time>
      </trkpt>
      <trkpt lat="48.03337" lon="-4.49474">
        <ele>41.47</ele>
        <time>2015-11-19T13:16:18Z</time>
      </trkpt>
      <trkpt lat="48.03331" lon="-4.49475">
        <ele>44.36</ele>
        <time>2015-11-19T13:16:23Z</time>
      </trkpt>
      <trkpt lat="48.03316" lon="-4.49486">
        <ele>49.65</ele>
        <time>2015-11-19T13:16:39Z</time>
      </trkpt>
      <trkpt lat="48.03308" lon="-4.49496">
        <ele>51.57</ele>
        <time>2015-11-19T13:16:49Z</time>
      </trkpt>
      <trkpt lat="48.03302" lon="-4.49498">
        <ele>52.53</ele>
        <time>2015-11-19T13:16:53Z</time>
      </trkpt>
      <trkpt lat="48.03297" lon="-4.49502">
        <ele>49.65</ele>
        <time>2015-11-19T13:16:59Z</time>
      </trkpt>
      <trkpt lat="48.03297" lon="-4.49507">
        <ele>49.16</ele>
        <time>2015-11-19T13:17:02Z</time>
      </trkpt>
      <trkpt lat="48.03284" lon="-4.49519">
        <ele>50.61</ele>
        <time>2015-11-19T13:17:15Z</time>
      </trkpt>
      <trkpt lat="48.03283" lon="-4.4952">
        <ele>51.09</ele>
        <time>2015-11-19T13:17:16Z</time>
      </trkpt>
      <trkpt lat="48.03276" lon="-4.49529">
        <ele>53.01</ele>
        <time>2015-11-19T13:17:23Z</time>
      </trkpt>
      <trkpt lat="48.03269" lon="-4.49533">
        <ele>55.89</ele>
        <time>2015-11-19T13:17:29Z</time>
      </trkpt>
      <trkpt lat="48.03264" lon="-4.49537">
        <ele>58.3</ele>
        <time>2015-11-19T13:17:33Z</time>
      </trkpt>
      <trkpt lat="48.03257" lon="-4.49543">
        <ele>61.18</ele>
        <time>2015-11-19T13:17:40Z</time>
      </trkpt>
      <trkpt lat="48.03254" lon="-4.49546">
        <ele>61.66</ele>
        <time>2015-11-19T13:17:44Z</time>
      </trkpt>
      <trkpt lat="48.03252" lon="-4.49548">
        <ele>61.66</ele>
        <time>2015-11-19T13:17:46Z</time>
      </trkpt>
      <trkpt lat="48.0325" lon="-4.49552">
        <ele>60.7</ele>
        <time>2015-11-19T13:17:49Z</time>
      </trkpt>
      <trkpt lat="48.03251" lon="-4.49559">
        <ele>59.26</ele>
        <time>2015-11-19T13:17:54Z</time>
      </trkpt>
      <trkpt lat="48.03253" lon="-4.49563">
        <ele>58.78</ele>
        <time>2015-11-19T13:17:57Z</time>
      </trkpt>
      <trkpt lat="48.03259" lon="-4.49579">
        <ele>55.41</ele>
        <time>2015-11-19T13:18:09Z</time>
      </trkpt>
      <trkpt lat="48.03264" lon="-4.4959">
        <ele>55.41</ele>
        <time>2015-11-19T13:18:20Z</time>
      </trkpt>
      <trkpt lat="48.03265" lon="-4.49595">
        <ele>55.89</ele>
        <time>2015-11-19T13:18:23Z</time>
      </trkpt>
      <trkpt lat="48.03267" lon="-4.496">
        <ele>56.86</ele>
        <time>2015-11-19T13:18:27Z</time>
      </trkpt>
      <trkpt lat="48.03274" lon="-4.49618">
        <ele>58.3</ele>
        <time>2015-11-19T13:18:38Z</time>
      </trkpt>
      <trkpt lat="48.03275" lon="-4.49619">
        <ele>58.3</ele>
        <time>2015-11-19T13:18:39Z</time>
      </trkpt>
      <trkpt lat="48.03279" lon="-4.49629">
        <ele>58.3</ele>
        <time>2015-11-19T13:18:45Z</time>
      </trkpt>
      <trkpt lat="48.0328" lon="-4.49634">
        <ele>57.82</ele>
        <time>2015-11-19T13:18:48Z</time>
      </trkpt>
      <trkpt lat="48.03284" lon="-4.49639">
        <ele>58.3</ele>
        <time>2015-11-19T13:18:52Z</time>
      </trkpt>
      <trkpt lat="48.03287" lon="-4.49649">
        <ele>58.78</ele>
        <time>2015-11-19T13:18:58Z</time>
      </trkpt>
      <trkpt lat="48.03294" lon="-4.49669">
        <ele>61.66</ele>
        <time>2015-11-19T13:19:09Z</time>
      </trkpt>
      <trkpt lat="48.03297" lon="-4.49677">
        <ele>61.18</ele>
        <time>2015-11-19T13:19:14Z</time>
      </trkpt>
      <trkpt lat="48.03302" lon="-4.49693">
        <ele>61.66</ele>
        <time>2015-11-19T13:19:24Z</time>
      </trkpt>
      <trkpt lat="48.03303" lon="-4.49695">
        <ele>62.14</ele>
        <time>2015-11-19T13:19:26Z</time>
      </trkpt>
      <trkpt lat="48.03305" lon="-4.49701">
        <ele>62.14</ele>
        <time>2015-11-19T13:19:30Z</time>
      </trkpt>
      <trkpt lat="48.03305" lon="-4.49706">
        <ele>62.14</ele>
        <time>2015-11-19T13:19:33Z</time>
      </trkpt>
      <trkpt lat="48.03307" lon="-4.49712">
        <ele>62.62</ele>
        <time>2015-11-19T13:19:37Z</time>
      </trkpt>
      <trkpt lat="48.03306" lon="-4.49717">
        <ele>65.03</ele>
        <time>2015-11-19T13:19:40Z</time>
      </trkpt>
      <trkpt lat="48.03302" lon="-4.49733">
        <ele>66.47</ele>
        <time>2015-11-19T13:19:49Z</time>
      </trkpt>
      <trkpt lat="48.033" lon="-4.49741">
        <ele>67.43</ele>
        <time>2015-11-19T13:19:54Z</time>
      </trkpt>
      <trkpt lat="48.03297" lon="-4.49751">
        <ele>68.39</ele>
        <time>2015-11-19T13:20:00Z</time>
      </trkpt>
      <trkpt lat="48.03294" lon="-4.49757">
        <ele>67.91</ele>
        <time>2015-11-19T13:20:04Z</time>
      </trkpt>
      <trkpt lat="48.0329" lon="-4.49775">
        <ele>66.95</ele>
        <time>2015-11-19T13:20:13Z</time>
      </trkpt>
      <trkpt lat="48.03287" lon="-4.4978">
        <ele>67.43</ele>
        <time>2015-11-19T13:20:17Z</time>
      </trkpt>
      <trkpt lat="48.03283" lon="-4.49798">
        <ele>66.95</ele>
        <time>2015-11-19T13:20:28Z</time>
      </trkpt>
      <trkpt lat="48.03277" lon="-4.49819">
        <ele>66.47</ele>
        <time>2015-11-19T13:20:41Z</time>
      </trkpt>
      <trkpt lat="48.03274" lon="-4.49835">
        <ele>67.43</ele>
        <time>2015-11-19T13:20:53Z</time>
      </trkpt>
      <trkpt lat="48.03271" lon="-4.49854">
        <ele>68.39</ele>
        <time>2015-11-19T13:21:04Z</time>
      </trkpt>
      <trkpt lat="48.03269" lon="-4.49868">
        <ele>68.87</ele>
        <time>2015-11-19T13:21:11Z</time>
      </trkpt>
      <trkpt lat="48.03267" lon="-4.4989">
        <ele>68.87</ele>
        <time>2015-11-19T13:21:23Z</time>
      </trkpt>
      <trkpt lat="48.03266" lon="-4.49911">
        <ele>67.91</ele>
        <time>2015-11-19T13:21:33Z</time>
      </trkpt>
      <trkpt lat="48.03263" lon="-4.4992">
        <ele>68.87</ele>
        <time>2015-11-19T13:21:37Z</time>
      </trkpt>
      <trkpt lat="48.03263" lon="-4.49927">
        <ele>68.87</ele>
        <time>2015-11-19T13:21:41Z</time>
      </trkpt>
      <trkpt lat="48.03262" lon="-4.49946">
        <ele>66.47</ele>
        <time>2015-11-19T13:21:52Z</time>
      </trkpt>
      <trkpt lat="48.03261" lon="-4.49959">
        <ele>65.51</ele>
        <time>2015-11-19T13:21:59Z</time>
      </trkpt>
      <trkpt lat="48.03258" lon="-4.49986">
        <ele>63.58</ele>
        <time>2015-11-19T13:22:14Z</time>
      </trkpt>
      <trkpt lat="48.03258" lon="-4.49997">
        <ele>63.58</ele>
        <time>2015-11-19T13:22:20Z</time>
      </trkpt>
      <trkpt lat="48.03256" lon="-4.50022">
        <ele>64.07</ele>
        <time>2015-11-19T13:22:35Z</time>
      </trkpt>
      <trkpt lat="48.03256" lon="-4.50037">
        <ele>63.1</ele>
        <time>2015-11-19T13:22:43Z</time>
      </trkpt>
      <trkpt lat="48.03254" lon="-4.50048">
        <ele>63.1</ele>
        <time>2015-11-19T13:22:49Z</time>
      </trkpt>
      <trkpt lat="48.03254" lon="-4.50055">
        <ele>63.1</ele>
        <time>2015-11-19T13:22:52Z</time>
      </trkpt>
      <trkpt lat="48.03251" lon="-4.50081">
        <ele>61.66</ele>
        <time>2015-11-19T13:23:06Z</time>
      </trkpt>
      <trkpt lat="48.03251" lon="-4.50084">
        <ele>61.18</ele>
        <time>2015-11-19T13:23:08Z</time>
      </trkpt>
      <trkpt lat="48.03251" lon="-4.50088">
        <ele>60.7</ele>
        <time>2015-11-19T13:23:10Z</time>
      </trkpt>
      <trkpt lat="48.03253" lon="-4.50108">
        <ele>58.78</ele>
        <time>2015-11-19T13:23:26Z</time>
      </trkpt>
      <trkpt lat="48.03261" lon="-4.50124">
        <ele>56.86</ele>
        <time>2015-11-19T13:23:39Z</time>
      </trkpt>
      <trkpt lat="48.03272" lon="-4.50144">
        <ele>52.05</ele>
        <time>2015-11-19T13:23:53Z</time>
      </trkpt>
      <trkpt lat="48.03273" lon="-4.50145">
        <ele>52.05</ele>
        <time>2015-11-19T13:23:54Z</time>
      </trkpt>
      <trkpt lat="48.03281" lon="-4.50169">
        <ele>50.13</ele>
        <time>2015-11-19T13:24:09Z</time>
      </trkpt>
      <trkpt lat="48.0328" lon="-4.50176">
        <ele>48.68</ele>
        <time>2015-11-19T13:24:19Z</time>
      </trkpt>
      <trkpt lat="48.03273" lon="-4.50194">
        <ele>49.65</ele>
        <time>2015-11-19T13:24:31Z</time>
      </trkpt>
      <trkpt lat="48.0327" lon="-4.50207">
        <ele>50.61</ele>
        <time>2015-11-19T13:24:43Z</time>
      </trkpt>
      <trkpt lat="48.03267" lon="-4.50222">
        <ele>52.53</ele>
        <time>2015-11-19T13:24:53Z</time>
      </trkpt>
      <trkpt lat="48.03265" lon="-4.50228">
        <ele>53.49</ele>
        <time>2015-11-19T13:24:56Z</time>
      </trkpt>
      <trkpt lat="48.03259" lon="-4.5025">
        <ele>55.41</ele>
        <time>2015-11-19T13:25:09Z</time>
      </trkpt>
      <trkpt lat="48.03265" lon="-4.50274">
        <ele>58.3</ele>
        <time>2015-11-19T13:25:22Z</time>
      </trkpt>
      <trkpt lat="48.03271" lon="-4.50292">
        <ele>59.74</ele>
        <time>2015-11-19T13:25:34Z</time>
      </trkpt>
      <trkpt lat="48.03272" lon="-4.50296">
        <ele>59.74</ele>
        <time>2015-11-19T13:25:36Z</time>
      </trkpt>
      <trkpt lat="48.03279" lon="-4.5032">
        <ele>62.14</ele>
        <time>2015-11-19T13:25:49Z</time>
      </trkpt>
      <trkpt lat="48.03285" lon="-4.50346">
        <ele>63.1</ele>
        <time>2015-11-19T13:26:04Z</time>
      </trkpt>
      <trkpt lat="48.03288" lon="-4.50372">
        <ele>60.22</ele>
        <time>2015-11-19T13:26:18Z</time>
      </trkpt>
      <trkpt lat="48.03289" lon="-4.50382">
        <ele>57.82</ele>
        <time>2015-11-19T13:26:24Z</time>
      </trkpt>
      <trkpt lat="48.03289" lon="-4.50401">
        <ele>57.82</ele>
        <time>2015-11-19T13:26:34Z</time>
      </trkpt>
      <trkpt lat="48.03288" lon="-4.50412">
        <ele>58.78</ele>
        <time>2015-11-19T13:26:39Z</time>
      </trkpt>
      <trkpt lat="48.03289" lon="-4.50417">
        <ele>58.3</ele>
        <time>2015-11-19T13:26:42Z</time>
      </trkpt>
      <trkpt lat="48.03289" lon="-4.50432">
        <ele>56.86</ele>
        <time>2015-11-19T13:26:50Z</time>
      </trkpt>
      <trkpt lat="48.03288" lon="-4.50444">
        <ele>56.37</ele>
        <time>2015-11-19T13:26:56Z</time>
      </trkpt>
      <trkpt lat="48.03289" lon="-4.50448">
        <ele>56.37</ele>
        <time>2015-11-19T13:26:58Z</time>
      </trkpt>
      <trkpt lat="48.03289" lon="-4.50465">
        <ele>56.86</ele>
        <time>2015-11-19T13:27:07Z</time>
      </trkpt>
      <trkpt lat="48.03288" lon="-4.50471">
        <ele>57.34</ele>
        <time>2015-11-19T13:27:10Z</time>
      </trkpt>
      <trkpt lat="48.03289" lon="-4.50491">
        <ele>57.82</ele>
        <time>2015-11-19T13:27:21Z</time>
      </trkpt>
      <trkpt lat="48.03289" lon="-4.50493">
        <ele>58.3</ele>
        <time>2015-11-19T13:27:22Z</time>
      </trkpt>
      <trkpt lat="48.0329" lon="-4.50514">
        <ele>60.22</ele>
        <time>2015-11-19T13:27:34Z</time>
      </trkpt>
      <trkpt lat="48.0329" lon="-4.50516">
        <ele>60.7</ele>
        <time>2015-11-19T13:27:35Z</time>
      </trkpt>
      <trkpt lat="48.03291" lon="-4.50539">
        <ele>61.66</ele>
        <time>2015-11-19T13:27:47Z</time>
      </trkpt>
      <trkpt lat="48.03292" lon="-4.50545">
        <ele>62.14</ele>
        <time>2015-11-19T13:27:50Z</time>
      </trkpt>
      <trkpt lat="48.03292" lon="-4.50552">
        <ele>61.66</ele>
        <time>2015-11-19T13:27:53Z</time>
      </trkpt>
      <trkpt lat="48.03291" lon="-4.50571">
        <ele>60.22</ele>
        <time>2015-11-19T13:28:05Z</time>
      </trkpt>
      <trkpt lat="48.0329" lon="-4.50573">
        <ele>60.7</ele>
        <time>2015-11-19T13:28:06Z</time>
      </trkpt>
      <trkpt lat="48.03289" lon="-4.50577">
        <ele>60.22</ele>
        <time>2015-11-19T13:28:08Z</time>
      </trkpt>
      <trkpt lat="48.03283" lon="-4.50583">
        <ele>58.78</ele>
        <time>2015-11-19T13:28:13Z</time>
      </trkpt>
      <trkpt lat="48.03279" lon="-4.50586">
        <ele>57.34</ele>
        <time>2015-11-19T13:28:17Z</time>
      </trkpt>
      <trkpt lat="48.0327" lon="-4.50591">
        <ele>55.89</ele>
        <time>2015-11-19T13:28:25Z</time>
      </trkpt>
      <trkpt lat="48.03257" lon="-4.506">
        <ele>56.86</ele>
        <time>2015-11-19T13:28:37Z</time>
      </trkpt>
      <trkpt lat="48.03256" lon="-4.50601">
        <ele>56.86</ele>
        <time>2015-11-19T13:28:38Z</time>
      </trkpt>
      <trkpt lat="48.03253" lon="-4.50604">
        <ele>56.86</ele>
        <time>2015-11-19T13:28:41Z</time>
      </trkpt>
      <trkpt lat="48.03238" lon="-4.50614">
        <ele>55.41</ele>
        <time>2015-11-19T13:28:54Z</time>
      </trkpt>
      <trkpt lat="48.03228" lon="-4.5062">
        <ele>55.89</ele>
        <time>2015-11-19T13:29:02Z</time>
      </trkpt>
      <trkpt lat="48.0322" lon="-4.50624">
        <ele>55.89</ele>
        <time>2015-11-19T13:29:09Z</time>
      </trkpt>
      <trkpt lat="48.03209" lon="-4.50625">
        <ele>56.37</ele>
        <time>2015-11-19T13:29:19Z</time>
      </trkpt>
      <trkpt lat="48.03206" lon="-4.50624">
        <ele>55.89</ele>
        <time>2015-11-19T13:29:22Z</time>
      </trkpt>
      <trkpt lat="48.03203" lon="-4.50624">
        <ele>56.37</ele>
        <time>2015-11-19T13:29:25Z</time>
      </trkpt>
      <trkpt lat="48.032" lon="-4.50624">
        <ele>56.37</ele>
        <time>2015-11-19T13:29:27Z</time>
      </trkpt>
      <trkpt lat="48.03193" lon="-4.50624">
        <ele>57.34</ele>
        <time>2015-11-19T13:29:33Z</time>
      </trkpt>
      <trkpt lat="48.03186" lon="-4.50624">
        <ele>58.3</ele>
        <time>2015-11-19T13:29:38Z</time>
      </trkpt>
      <trkpt lat="48.03181" lon="-4.50623">
        <ele>58.78</ele>
        <time>2015-11-19T13:29:42Z</time>
      </trkpt>
      <trkpt lat="48.0316" lon="-4.50625">
        <ele>60.7</ele>
        <time>2015-11-19T13:29:59Z</time>
      </trkpt>
      <trkpt lat="48.03159" lon="-4.50625">
        <ele>61.18</ele>
        <time>2015-11-19T13:30:00Z</time>
      </trkpt>
      <trkpt lat="48.03154" lon="-4.50629">
        <ele>61.66</ele>
        <time>2015-11-19T13:30:05Z</time>
      </trkpt>
      <trkpt lat="48.0315" lon="-4.50635">
        <ele>61.66</ele>
        <time>2015-11-19T13:30:09Z</time>
      </trkpt>
      <trkpt lat="48.03146" lon="-4.50657">
        <ele>60.7</ele>
        <time>2015-11-19T13:30:21Z</time>
      </trkpt>
      <trkpt lat="48.03143" lon="-4.50681">
        <ele>58.3</ele>
        <time>2015-11-19T13:30:34Z</time>
      </trkpt>
      <trkpt lat="48.03143" lon="-4.50688">
        <ele>58.3</ele>
        <time>2015-11-19T13:30:38Z</time>
      </trkpt>
      <trkpt lat="48.0314" lon="-4.50715">
        <ele>57.82</ele>
        <time>2015-11-19T13:30:54Z</time>
      </trkpt>
      <trkpt lat="48.03137" lon="-4.50734">
        <ele>58.3</ele>
        <time>2015-11-19T13:31:04Z</time>
      </trkpt>
      <trkpt lat="48.03135" lon="-4.50762">
        <ele>57.82</ele>
        <time>2015-11-19T13:31:18Z</time>
      </trkpt>
      <trkpt lat="48.03134" lon="-4.50771">
        <ele>58.78</ele>
        <time>2015-11-19T13:31:23Z</time>
      </trkpt>
      <trkpt lat="48.03135" lon="-4.50774">
        <ele>59.74</ele>
        <time>2015-11-19T13:31:25Z</time>
      </trkpt>
      <trkpt lat="48.03135" lon="-4.50782">
        <ele>60.22</ele>
        <time>2015-11-19T13:31:29Z</time>
      </trkpt>
      <trkpt lat="48.03135" lon="-4.50793">
        <ele>59.26</ele>
        <time>2015-11-19T13:31:35Z</time>
      </trkpt>
      <trkpt lat="48.03139" lon="-4.5081">
        <ele>59.26</ele>
        <time>2015-11-19T13:31:44Z</time>
      </trkpt>
      <trkpt lat="48.0314" lon="-4.50815">
        <ele>59.74</ele>
        <time>2015-11-19T13:31:47Z</time>
      </trkpt>
      <trkpt lat="48.03143" lon="-4.50839">
        <ele>59.74</ele>
        <time>2015-11-19T13:32:00Z</time>
      </trkpt>
      <trkpt lat="48.03146" lon="-4.50864">
        <ele>60.7</ele>
        <time>2015-11-19T13:32:13Z</time>
      </trkpt>
      <trkpt lat="48.0315" lon="-4.50886">
        <ele>61.18</ele>
        <time>2015-11-19T13:32:25Z</time>
      </trkpt>
      <trkpt lat="48.03153" lon="-4.50904">
        <ele>59.74</ele>
        <time>2015-11-19T13:32:35Z</time>
      </trkpt>
      <trkpt lat="48.03157" lon="-4.50936">
        <ele>59.26</ele>
        <time>2015-11-19T13:32:51Z</time>
      </trkpt>
      <trkpt lat="48.03157" lon="-4.50939">
        <ele>58.78</ele>
        <time>2015-11-19T13:32:53Z</time>
      </trkpt>
      <trkpt lat="48.03158" lon="-4.50943">
        <ele>58.3</ele>
        <time>2015-11-19T13:32:57Z</time>
      </trkpt>
      <trkpt lat="48.0315" lon="-4.50964">
        <ele>59.74</ele>
        <time>2015-11-19T13:33:11Z</time>
      </trkpt>
      <trkpt lat="48.03142" lon="-4.50989">
        <ele>58.3</ele>
        <time>2015-11-19T13:33:25Z</time>
      </trkpt>
      <trkpt lat="48.03134" lon="-4.5101">
        <ele>57.34</ele>
        <time>2015-11-19T13:33:39Z</time>
      </trkpt>
      <trkpt lat="48.0313" lon="-4.51026">
        <ele>56.86</ele>
        <time>2015-11-19T13:33:48Z</time>
      </trkpt>
      <trkpt lat="48.03145" lon="-4.51035">
        <ele>53.49</ele>
        <time>2015-11-19T13:34:03Z</time>
      </trkpt>
      <trkpt lat="48.03166" lon="-4.5104">
        <ele>50.61</ele>
        <time>2015-11-19T13:34:20Z</time>
      </trkpt>
      <trkpt lat="48.03176" lon="-4.51042">
        <ele>47.72</ele>
        <time>2015-11-19T13:34:30Z</time>
      </trkpt>
      <trkpt lat="48.03191" lon="-4.51046">
        <ele>44.84</ele>
        <time>2015-11-19T13:34:44Z</time>
      </trkpt>
      <trkpt lat="48.03207" lon="-4.5105">
        <ele>41.95</ele>
        <time>2015-11-19T13:34:59Z</time>
      </trkpt>
      <trkpt lat="48.03216" lon="-4.51052">
        <ele>38.11</ele>
        <time>2015-11-19T13:35:07Z</time>
      </trkpt>
      <trkpt lat="48.03229" lon="-4.51055">
        <ele>30.9</ele>
        <time>2015-11-19T13:35:21Z</time>
      </trkpt>
      <trkpt lat="48.03239" lon="-4.51057">
        <ele>29.94</ele>
        <time>2015-11-19T13:35:30Z</time>
      </trkpt>
      <trkpt lat="48.03256" lon="-4.51061">
        <ele>26.57</ele>
        <time>2015-11-19T13:35:45Z</time>
      </trkpt>
      <trkpt lat="48.03277" lon="-4.51065">
        <ele>30.42</ele>
        <time>2015-11-19T13:35:58Z</time>
      </trkpt>
      <trkpt lat="48.03292" lon="-4.51071">
        <ele>28.5</ele>
        <time>2015-11-19T13:36:11Z</time>
      </trkpt>
      <trkpt lat="48.03307" lon="-4.51079">
        <ele>24.65</ele>
        <time>2015-11-19T13:36:24Z</time>
      </trkpt>
      <trkpt lat="48.03318" lon="-4.51086">
        <ele>22.73</ele>
        <time>2015-11-19T13:36:34Z</time>
      </trkpt>
      <trkpt lat="48.03332" lon="-4.51097">
        <ele>20.32</ele>
        <time>2015-11-19T13:36:49Z</time>
      </trkpt>
      <trkpt lat="48.03336" lon="-4.511">
        <ele>20.81</ele>
        <time>2015-11-19T13:36:53Z</time>
      </trkpt>
      <trkpt lat="48.03343" lon="-4.51102">
        <ele>21.29</ele>
        <time>2015-11-19T13:36:59Z</time>
      </trkpt>
      <trkpt lat="48.03349" lon="-4.51105">
        <ele>20.81</ele>
        <time>2015-11-19T13:37:04Z</time>
      </trkpt>
      <trkpt lat="48.03359" lon="-4.51107">
        <ele>21.29</ele>
        <time>2015-11-19T13:37:10Z</time>
      </trkpt>
      <trkpt lat="48.0338" lon="-4.51107">
        <ele>21.77</ele>
        <time>2015-11-19T13:37:25Z</time>
      </trkpt>
      <trkpt lat="48.0339" lon="-4.51108">
        <ele>21.77</ele>
        <time>2015-11-19T13:37:35Z</time>
      </trkpt>
      <trkpt lat="48.03403" lon="-4.51107">
        <ele>21.29</ele>
        <time>2015-11-19T13:37:48Z</time>
      </trkpt>
      <trkpt lat="48.03422" lon="-4.51106">
        <ele>22.73</ele>
        <time>2015-11-19T13:38:02Z</time>
      </trkpt>
      <trkpt lat="48.03431" lon="-4.5111">
        <ele>22.73</ele>
        <time>2015-11-19T13:38:08Z</time>
      </trkpt>
      <trkpt lat="48.03451" lon="-4.51114">
        <ele>26.09</ele>
        <time>2015-11-19T13:38:23Z</time>
      </trkpt>
      <trkpt lat="48.03471" lon="-4.5111">
        <ele>20.81</ele>
        <time>2015-11-19T13:38:39Z</time>
      </trkpt>
      <trkpt lat="48.0348" lon="-4.51112">
        <ele>17.92</ele>
        <time>2015-11-19T13:38:51Z</time>
      </trkpt>
      <trkpt lat="48.0349" lon="-4.51112">
        <ele>15.04</ele>
        <time>2015-11-19T13:39:03Z</time>
      </trkpt>
      <trkpt lat="48.03508" lon="-4.51114">
        <ele>13.12</ele>
        <time>2015-11-19T13:39:16Z</time>
      </trkpt>
      <trkpt lat="48.03508" lon="-4.51114">
        <ele>13.12</ele>
        <time>2015-11-19T13:39:17Z</time>
      </trkpt>
      <trkpt lat="48.03522" lon="-4.51127">
        <ele>10.23</ele>
        <time>2015-11-19T13:39:29Z</time>
      </trkpt>
      <trkpt lat="48.03528" lon="-4.5115">
        <ele>11.19</ele>
        <time>2015-11-19T13:39:42Z</time>
      </trkpt>
      <trkpt lat="48.03528" lon="-4.51153">
        <ele>11.19</ele>
        <time>2015-11-19T13:39:44Z</time>
      </trkpt>
      <trkpt lat="48.03533" lon="-4.51178">
        <ele>11.67</ele>
        <time>2015-11-19T13:39:57Z</time>
      </trkpt>
      <trkpt lat="48.03534" lon="-4.51185">
        <ele>12.15</ele>
        <time>2015-11-19T13:40:00Z</time>
      </trkpt>
      <trkpt lat="48.03535" lon="-4.51204">
        <ele>12.63</ele>
        <time>2015-11-19T13:40:11Z</time>
      </trkpt>
      <trkpt lat="48.03535" lon="-4.51207">
        <ele>12.63</ele>
        <time>2015-11-19T13:40:13Z</time>
      </trkpt>
      <trkpt lat="48.03541" lon="-4.51233">
        <ele>8.31</ele>
        <time>2015-11-19T13:40:30Z</time>
      </trkpt>
      <trkpt lat="48.03542" lon="-4.51258">
        <ele>9.75</ele>
        <time>2015-11-19T13:40:43Z</time>
      </trkpt>
      <trkpt lat="48.03542" lon="-4.51265">
        <ele>10.71</ele>
        <time>2015-11-19T13:40:47Z</time>
      </trkpt>
      <trkpt lat="48.03543" lon="-4.51285">
        <ele>14.56</ele>
        <time>2015-11-19T13:40:58Z</time>
      </trkpt>
      <trkpt lat="48.03543" lon="-4.51288">
        <ele>14.56</ele>
        <time>2015-11-19T13:41:00Z</time>
      </trkpt>
      <trkpt lat="48.03544" lon="-4.51297">
        <ele>15.52</ele>
        <time>2015-11-19T13:41:05Z</time>
      </trkpt>
      <trkpt lat="48.03546" lon="-4.51321">
        <ele>19.84</ele>
        <time>2015-11-19T13:41:19Z</time>
      </trkpt>
      <trkpt lat="48.03546" lon="-4.5133">
        <ele>20.81</ele>
        <time>2015-11-19T13:41:24Z</time>
      </trkpt>
      <trkpt lat="48.0354" lon="-4.51355">
        <ele>22.73</ele>
        <time>2015-11-19T13:41:39Z</time>
      </trkpt>
      <trkpt lat="48.03535" lon="-4.51381">
        <ele>21.29</ele>
        <time>2015-11-19T13:41:52Z</time>
      </trkpt>
      <trkpt lat="48.0353" lon="-4.51398">
        <ele>20.32</ele>
        <time>2015-11-19T13:42:01Z</time>
      </trkpt>
      <trkpt lat="48.03529" lon="-4.51401">
        <ele>20.32</ele>
        <time>2015-11-19T13:42:04Z</time>
      </trkpt>
      <trkpt lat="48.03527" lon="-4.51411">
        <ele>21.29</ele>
        <time>2015-11-19T13:42:10Z</time>
      </trkpt>
      <trkpt lat="48.03522" lon="-4.51437">
        <ele>21.77</ele>
        <time>2015-11-19T13:42:26Z</time>
      </trkpt>
      <trkpt lat="48.03518" lon="-4.51456">
        <ele>22.25</ele>
        <time>2015-11-19T13:42:36Z</time>
      </trkpt>
      <trkpt lat="48.03517" lon="-4.51483">
        <ele>21.29</ele>
        <time>2015-11-19T13:42:51Z</time>
      </trkpt>
      <trkpt lat="48.03517" lon="-4.51507">
        <ele>23.69</ele>
        <time>2015-11-19T13:43:05Z</time>
      </trkpt>
      <trkpt lat="48.03516" lon="-4.5153">
        <ele>24.65</ele>
        <time>2015-11-19T13:43:18Z</time>
      </trkpt>
      <trkpt lat="48.03517" lon="-4.51553">
        <ele>25.13</ele>
        <time>2015-11-19T13:43:32Z</time>
      </trkpt>
      <trkpt lat="48.03516" lon="-4.51574">
        <ele>25.13</ele>
        <time>2015-11-19T13:43:45Z</time>
      </trkpt>
      <trkpt lat="48.03516" lon="-4.51601">
        <ele>28.02</ele>
        <time>2015-11-19T13:44:00Z</time>
      </trkpt>
      <trkpt lat="48.03516" lon="-4.51629">
        <ele>30.42</ele>
        <time>2015-11-19T13:44:17Z</time>
      </trkpt>
      <trkpt lat="48.03516" lon="-4.51657">
        <ele>35.23</ele>
        <time>2015-11-19T13:44:32Z</time>
      </trkpt>
      <trkpt lat="48.03516" lon="-4.51667">
        <ele>36.19</ele>
        <time>2015-11-19T13:44:37Z</time>
      </trkpt>
      <trkpt lat="48.03515" lon="-4.51693">
        <ele>40.03</ele>
        <time>2015-11-19T13:44:52Z</time>
      </trkpt>
      <trkpt lat="48.03514" lon="-4.51714">
        <ele>39.55</ele>
        <time>2015-11-19T13:45:04Z</time>
      </trkpt>
      <trkpt lat="48.03512" lon="-4.51726">
        <ele>40.51</ele>
        <time>2015-11-19T13:45:11Z</time>
      </trkpt>
      <trkpt lat="48.03513" lon="-4.51732">
        <ele>40.51</ele>
        <time>2015-11-19T13:45:14Z</time>
      </trkpt>
      <trkpt lat="48.03512" lon="-4.51755">
        <ele>40.99</ele>
        <time>2015-11-19T13:45:27Z</time>
      </trkpt>
      <trkpt lat="48.03512" lon="-4.51763">
        <ele>40.99</ele>
        <time>2015-11-19T13:45:31Z</time>
      </trkpt>
      <trkpt lat="48.03512" lon="-4.51775">
        <ele>41.47</ele>
        <time>2015-11-19T13:45:37Z</time>
      </trkpt>
      <trkpt lat="48.03512" lon="-4.51795">
        <ele>41.47</ele>
        <time>2015-11-19T13:45:48Z</time>
      </trkpt>
      <trkpt lat="48.03512" lon="-4.51813">
        <ele>40.99</ele>
        <time>2015-11-19T13:45:58Z</time>
      </trkpt>
      <trkpt lat="48.03511" lon="-4.51833">
        <ele>40.03</ele>
        <time>2015-11-19T13:46:09Z</time>
      </trkpt>
      <trkpt lat="48.0351" lon="-4.51857">
        <ele>40.99</ele>
        <time>2015-11-19T13:46:22Z</time>
      </trkpt>
      <trkpt lat="48.03507" lon="-4.51875">
        <ele>42.92</ele>
        <time>2015-11-19T13:46:33Z</time>
      </trkpt>
      <trkpt lat="48.03503" lon="-4.51902">
        <ele>47.72</ele>
        <time>2015-11-19T13:46:48Z</time>
      </trkpt>
      <trkpt lat="48.03498" lon="-4.51925">
        <ele>47.24</ele>
        <time>2015-11-19T13:47:00Z</time>
      </trkpt>
      <trkpt lat="48.03497" lon="-4.51928">
        <ele>46.76</ele>
        <time>2015-11-19T13:47:02Z</time>
      </trkpt>
      <trkpt lat="48.03495" lon="-4.51937">
        <ele>45.8</ele>
        <time>2015-11-19T13:47:07Z</time>
      </trkpt>
      <trkpt lat="48.03491" lon="-4.51955">
        <ele>45.8</ele>
        <time>2015-11-19T13:47:18Z</time>
      </trkpt>
      <trkpt lat="48.03488" lon="-4.5197">
        <ele>45.32</ele>
        <time>2015-11-19T13:47:26Z</time>
      </trkpt>
      <trkpt lat="48.03486" lon="-4.51978">
        <ele>44.84</ele>
        <time>2015-11-19T13:47:31Z</time>
      </trkpt>
      <trkpt lat="48.03483" lon="-4.51996">
        <ele>45.32</ele>
        <time>2015-11-19T13:47:42Z</time>
      </trkpt>
      <trkpt lat="48.03478" lon="-4.52018">
        <ele>46.76</ele>
        <time>2015-11-19T13:47:54Z</time>
      </trkpt>
      <trkpt lat="48.03478" lon="-4.52022">
        <ele>46.76</ele>
        <time>2015-11-19T13:47:56Z</time>
      </trkpt>
      <trkpt lat="48.03475" lon="-4.52044">
        <ele>47.72</ele>
        <time>2015-11-19T13:48:09Z</time>
      </trkpt>
      <trkpt lat="48.03468" lon="-4.52071">
        <ele>48.2</ele>
        <time>2015-11-19T13:48:24Z</time>
      </trkpt>
      <trkpt lat="48.03462" lon="-4.52102">
        <ele>48.2</ele>
        <time>2015-11-19T13:48:40Z</time>
      </trkpt>
      <trkpt lat="48.03455" lon="-4.52128">
        <ele>48.68</ele>
        <time>2015-11-19T13:48:54Z</time>
      </trkpt>
      <trkpt lat="48.03448" lon="-4.5215">
        <ele>47.72</ele>
        <time>2015-11-19T13:49:07Z</time>
      </trkpt>
      <trkpt lat="48.03443" lon="-4.52161">
        <ele>46.76</ele>
        <time>2015-11-19T13:49:14Z</time>
      </trkpt>
      <trkpt lat="48.03442" lon="-4.52168">
        <ele>46.76</ele>
        <time>2015-11-19T13:49:18Z</time>
      </trkpt>
      <trkpt lat="48.03438" lon="-4.52181">
        <ele>46.76</ele>
        <time>2015-11-19T13:49:25Z</time>
      </trkpt>
      <trkpt lat="48.03428" lon="-4.52203">
        <ele>46.76</ele>
        <time>2015-11-19T13:49:39Z</time>
      </trkpt>
      <trkpt lat="48.03416" lon="-4.52217">
        <ele>47.24</ele>
        <time>2015-11-19T13:49:51Z</time>
      </trkpt>
      <trkpt lat="48.03402" lon="-4.52225">
        <ele>49.16</ele>
        <time>2015-11-19T13:50:03Z</time>
      </trkpt>
      <trkpt lat="48.03393" lon="-4.5224">
        <ele>52.05</ele>
        <time>2015-11-19T13:50:15Z</time>
      </trkpt>
      <trkpt lat="48.03386" lon="-4.5227">
        <ele>52.53</ele>
        <time>2015-11-19T13:50:32Z</time>
      </trkpt>
      <trkpt lat="48.03384" lon="-4.52278">
        <ele>52.05</ele>
        <time>2015-11-19T13:50:37Z</time>
      </trkpt>
      <trkpt lat="48.03373" lon="-4.52287">
        <ele>51.57</ele>
        <time>2015-11-19T13:50:49Z</time>
      </trkpt>
      <trkpt lat="48.03354" lon="-4.52283">
        <ele>52.53</ele>
        <time>2015-11-19T13:51:05Z</time>
      </trkpt>
      <trkpt lat="48.03349" lon="-4.52284">
        <ele>53.49</ele>
        <time>2015-11-19T13:51:09Z</time>
      </trkpt>
      <trkpt lat="48.03337" lon="-4.52281">
        <ele>53.97</ele>
        <time>2015-11-19T13:51:18Z</time>
      </trkpt>
      <trkpt lat="48.03319" lon="-4.52275">
        <ele>53.49</ele>
        <time>2015-11-19T13:51:33Z</time>
      </trkpt>
      <trkpt lat="48.03305" lon="-4.52271">
        <ele>50.61</ele>
        <time>2015-11-19T13:51:46Z</time>
      </trkpt>
      <trkpt lat="48.03299" lon="-4.5227">
        <ele>51.57</ele>
        <time>2015-11-19T13:51:50Z</time>
      </trkpt>
      <trkpt lat="48.03295" lon="-4.52267">
        <ele>52.05</ele>
        <time>2015-11-19T13:51:54Z</time>
      </trkpt>
      <trkpt lat="48.03282" lon="-4.52263">
        <ele>50.13</ele>
        <time>2015-11-19T13:52:08Z</time>
      </trkpt>
      <trkpt lat="48.03279" lon="-4.52262">
        <ele>49.65</ele>
        <time>2015-11-19T13:52:10Z</time>
      </trkpt>
      <trkpt lat="48.03269" lon="-4.52259">
        <ele>51.09</ele>
        <time>2015-11-19T13:52:18Z</time>
      </trkpt>
      <trkpt lat="48.03254" lon="-4.52255">
        <ele>52.05</ele>
        <time>2015-11-19T13:52:31Z</time>
      </trkpt>
      <trkpt lat="48.03246" lon="-4.52252">
        <ele>51.57</ele>
        <time>2015-11-19T13:52:38Z</time>
      </trkpt>
      <trkpt lat="48.03229" lon="-4.52242">
        <ele>55.41</ele>
        <time>2015-11-19T13:52:54Z</time>
      </trkpt>
      <trkpt lat="48.03225" lon="-4.52236">
        <ele>56.37</ele>
        <time>2015-11-19T13:53:01Z</time>
      </trkpt>
      <trkpt lat="48.03221" lon="-4.52233">
        <ele>58.3</ele>
        <time>2015-11-19T13:53:14Z</time>
      </trkpt>
      <trkpt lat="48.03218" lon="-4.52231">
        <ele>58.3</ele>
        <time>2015-11-19T13:53:28Z</time>
      </trkpt>
      <trkpt lat="48.03217" lon="-4.52227">
        <ele>58.78</ele>
        <time>2015-11-19T13:53:40Z</time>
      </trkpt>
      <trkpt lat="48.03206" lon="-4.52221">
        <ele>59.26</ele>
        <time>2015-11-19T13:53:53Z</time>
      </trkpt>
      <trkpt lat="48.03196" lon="-4.52213">
        <ele>59.26</ele>
        <time>2015-11-19T13:54:03Z</time>
      </trkpt>
      <trkpt lat="48.03187" lon="-4.5222">
        <ele>60.7</ele>
        <time>2015-11-19T13:54:12Z</time>
      </trkpt>
      <trkpt lat="48.03186" lon="-4.52242">
        <ele>60.22</ele>
        <time>2015-11-19T13:54:26Z</time>
      </trkpt>
      <trkpt lat="48.03183" lon="-4.52273">
        <ele>61.18</ele>
        <time>2015-11-19T13:54:41Z</time>
      </trkpt>
      <trkpt lat="48.03181" lon="-4.52297">
        <ele>62.14</ele>
        <time>2015-11-19T13:54:53Z</time>
      </trkpt>
      <trkpt lat="48.0318" lon="-4.52322">
        <ele>62.62</ele>
        <time>2015-11-19T13:55:06Z</time>
      </trkpt>
      <trkpt lat="48.03179" lon="-4.52337">
        <ele>63.1</ele>
        <time>2015-11-19T13:55:13Z</time>
      </trkpt>
      <trkpt lat="48.03176" lon="-4.52367">
        <ele>63.1</ele>
        <time>2015-11-19T13:55:28Z</time>
      </trkpt>
      <trkpt lat="48.03173" lon="-4.52394">
        <ele>62.14</ele>
        <time>2015-11-19T13:55:42Z</time>
      </trkpt>
      <trkpt lat="48.0317" lon="-4.52421">
        <ele>60.22</ele>
        <time>2015-11-19T13:55:55Z</time>
      </trkpt>
      <trkpt lat="48.03169" lon="-4.52448">
        <ele>60.7</ele>
        <time>2015-11-19T13:56:09Z</time>
      </trkpt>
      <trkpt lat="48.03165" lon="-4.52479">
        <ele>60.22</ele>
        <time>2015-11-19T13:56:25Z</time>
      </trkpt>
      <trkpt lat="48.03159" lon="-4.52509">
        <ele>60.22</ele>
        <time>2015-11-19T13:56:40Z</time>
      </trkpt>
      <trkpt lat="48.03151" lon="-4.52533">
        <ele>59.26</ele>
        <time>2015-11-19T13:56:53Z</time>
      </trkpt>
      <trkpt lat="48.03143" lon="-4.52559">
        <ele>59.26</ele>
        <time>2015-11-19T13:57:08Z</time>
      </trkpt>
      <trkpt lat="48.03134" lon="-4.52584">
        <ele>59.26</ele>
        <time>2015-11-19T13:57:22Z</time>
      </trkpt>
      <trkpt lat="48.03125" lon="-4.52611">
        <ele>57.82</ele>
        <time>2015-11-19T13:57:37Z</time>
      </trkpt>
      <trkpt lat="48.03119" lon="-4.52626">
        <ele>56.86</ele>
        <time>2015-11-19T13:57:46Z</time>
      </trkpt>
      <trkpt lat="48.03118" lon="-4.52634">
        <ele>56.86</ele>
        <time>2015-11-19T13:57:50Z</time>
      </trkpt>
      <trkpt lat="48.03114" lon="-4.52641">
        <ele>57.34</ele>
        <time>2015-11-19T13:57:55Z</time>
      </trkpt>
      <trkpt lat="48.03113" lon="-4.52651">
        <ele>56.86</ele>
        <time>2015-11-19T13:58:01Z</time>
      </trkpt>
      <trkpt lat="48.03104" lon="-4.52668">
        <ele>57.82</ele>
        <time>2015-11-19T13:58:12Z</time>
      </trkpt>
      <trkpt lat="48.03097" lon="-4.52688">
        <ele>59.74</ele>
        <time>2015-11-19T13:58:23Z</time>
      </trkpt>
      <trkpt lat="48.03089" lon="-4.52719">
        <ele>62.14</ele>
        <time>2015-11-19T13:58:39Z</time>
      </trkpt>
      <trkpt lat="48.031" lon="-4.52742">
        <ele>61.66</ele>
        <time>2015-11-19T13:58:55Z</time>
      </trkpt>
      <trkpt lat="48.03106" lon="-4.5275">
        <ele>59.74</ele>
        <time>2015-11-19T13:59:02Z</time>
      </trkpt>
      <trkpt lat="48.03121" lon="-4.52769">
        <ele>57.82</ele>
        <time>2015-11-19T13:59:18Z</time>
      </trkpt>
      <trkpt lat="48.03123" lon="-4.52774">
        <ele>56.37</ele>
        <time>2015-11-19T13:59:23Z</time>
      </trkpt>
      <trkpt lat="48.03119" lon="-4.5278">
        <ele>55.41</ele>
        <time>2015-11-19T13:59:28Z</time>
      </trkpt>
      <trkpt lat="48.03111" lon="-4.52806">
        <ele>53.01</ele>
        <time>2015-11-19T13:59:44Z</time>
      </trkpt>
      <trkpt lat="48.03101" lon="-4.5283">
        <ele>53.97</ele>
        <time>2015-11-19T13:59:59Z</time>
      </trkpt>
      <trkpt lat="48.03097" lon="-4.52838">
        <ele>54.45</ele>
        <time>2015-11-19T14:00:15Z</time>
      </trkpt>
      <trkpt lat="48.03097" lon="-4.52838">
        <ele>54.45</ele>
        <time>2015-11-19T14:00:20Z</time>
      </trkpt>
      <trkpt lat="48.03094" lon="-4.52839">
        <ele>54.45</ele>
        <time>2015-11-19T14:00:23Z</time>
      </trkpt>
      <trkpt lat="48.03079" lon="-4.52833">
        <ele>55.89</ele>
        <time>2015-11-19T14:00:36Z</time>
      </trkpt>
      <trkpt lat="48.03068" lon="-4.52826">
        <ele>57.34</ele>
        <time>2015-11-19T14:00:48Z</time>
      </trkpt>
      <trkpt lat="48.03049" lon="-4.52822">
        <ele>58.78</ele>
        <time>2015-11-19T14:01:04Z</time>
      </trkpt>
      <trkpt lat="48.03032" lon="-4.5282">
        <ele>59.26</ele>
        <time>2015-11-19T14:01:18Z</time>
      </trkpt>
      <trkpt lat="48.03023" lon="-4.5282">
        <ele>59.26</ele>
        <time>2015-11-19T14:01:26Z</time>
      </trkpt>
      <trkpt lat="48.03015" lon="-4.52827">
        <ele>59.74</ele>
        <time>2015-11-19T14:01:34Z</time>
      </trkpt>
      <trkpt lat="48.03003" lon="-4.5285">
        <ele>58.78</ele>
        <time>2015-11-19T14:01:50Z</time>
      </trkpt>
      <trkpt lat="48.02994" lon="-4.52862">
        <ele>56.86</ele>
        <time>2015-11-19T14:02:00Z</time>
      </trkpt>
      <trkpt lat="48.02986" lon="-4.52871">
        <ele>56.37</ele>
        <time>2015-11-19T14:02:08Z</time>
      </trkpt>
      <trkpt lat="48.02967" lon="-4.52885">
        <ele>53.49</ele>
        <time>2015-11-19T14:02:26Z</time>
      </trkpt>
      <trkpt lat="48.02955" lon="-4.5289">
        <ele>52.53</ele>
        <time>2015-11-19T14:02:36Z</time>
      </trkpt>
      <trkpt lat="48.02943" lon="-4.52897">
        <ele>51.57</ele>
        <time>2015-11-19T14:02:47Z</time>
      </trkpt>
      <trkpt lat="48.02932" lon="-4.52899">
        <ele>51.09</ele>
        <time>2015-11-19T14:02:57Z</time>
      </trkpt>
      <trkpt lat="48.02915" lon="-4.52905">
        <ele>47.72</ele>
        <time>2015-11-19T14:03:12Z</time>
      </trkpt>
      <trkpt lat="48.02901" lon="-4.52904">
        <ele>40.51</ele>
        <time>2015-11-19T14:03:26Z</time>
      </trkpt>
      <trkpt lat="48.02885" lon="-4.52902">
        <ele>39.55</ele>
        <time>2015-11-19T14:03:40Z</time>
      </trkpt>
      <trkpt lat="48.02866" lon="-4.52897">
        <ele>41.95</ele>
        <time>2015-11-19T14:03:55Z</time>
      </trkpt>
      <trkpt lat="48.02861" lon="-4.52907">
        <ele>40.03</ele>
        <time>2015-11-19T14:04:08Z</time>
      </trkpt>
      <trkpt lat="48.02862" lon="-4.5291">
        <ele>39.07</ele>
        <time>2015-11-19T14:04:18Z</time>
      </trkpt>
      <trkpt lat="48.02862" lon="-4.5291">
        <ele>39.55</ele>
        <time>2015-11-19T14:04:21Z</time>
      </trkpt>
      <trkpt lat="48.02863" lon="-4.52912">
        <ele>39.55</ele>
        <time>2015-11-19T14:04:23Z</time>
      </trkpt>
      <trkpt lat="48.02873" lon="-4.52923">
        <ele>39.07</ele>
        <time>2015-11-19T14:04:36Z</time>
      </trkpt>
      <trkpt lat="48.02875" lon="-4.52925">
        <ele>38.11</ele>
        <time>2015-11-19T14:04:53Z</time>
      </trkpt>
      <trkpt lat="48.02875" lon="-4.52925">
        <ele>38.11</ele>
        <time>2015-11-19T14:05:15Z</time>
      </trkpt>
      <trkpt lat="48.02875" lon="-4.52925">
        <ele>38.59</ele>
        <time>2015-11-19T14:05:34Z</time>
      </trkpt>
      <trkpt lat="48.02875" lon="-4.52926">
        <ele>38.59</ele>
        <time>2015-11-19T14:06:02Z</time>
      </trkpt>
      <trkpt lat="48.02877" lon="-4.52927">
        <ele>38.11</ele>
        <time>2015-11-19T14:06:19Z</time>
      </trkpt>
      <trkpt lat="48.02886" lon="-4.52935">
        <ele>39.07</ele>
        <time>2015-11-19T14:06:34Z</time>
      </trkpt>
      <trkpt lat="48.02895" lon="-4.52945">
        <ele>40.51</ele>
        <time>2015-11-19T14:06:47Z</time>
      </trkpt>
      <trkpt lat="48.0291" lon="-4.52957">
        <ele>42.44</ele>
        <time>2015-11-19T14:07:02Z</time>
      </trkpt>
      <trkpt lat="48.02923" lon="-4.52967">
        <ele>40.51</ele>
        <time>2015-11-19T14:07:15Z</time>
      </trkpt>
      <trkpt lat="48.02935" lon="-4.5298">
        <ele>40.03</ele>
        <time>2015-11-19T14:07:28Z</time>
      </trkpt>
      <trkpt lat="48.02946" lon="-4.52989">
        <ele>39.07</ele>
        <time>2015-11-19T14:07:40Z</time>
      </trkpt>
      <trkpt lat="48.0296" lon="-4.52999">
        <ele>37.63</ele>
        <time>2015-11-19T14:07:54Z</time>
      </trkpt>
      <trkpt lat="48.02968" lon="-4.53006">
        <ele>36.19</ele>
        <time>2015-11-19T14:08:03Z</time>
      </trkpt>
      <trkpt lat="48.02981" lon="-4.5301">
        <ele>32.82</ele>
        <time>2015-11-19T14:08:17Z</time>
      </trkpt>
      <trkpt lat="48.03001" lon="-4.53019">
        <ele>28.5</ele>
        <time>2015-11-19T14:08:36Z</time>
      </trkpt>
      <trkpt lat="48.03008" lon="-4.5302">
        <ele>27.05</ele>
        <time>2015-11-19T14:08:45Z</time>
      </trkpt>
      <trkpt lat="48.03016" lon="-4.53026">
        <ele>24.65</ele>
        <time>2015-11-19T14:08:53Z</time>
      </trkpt>
      <trkpt lat="48.0303" lon="-4.5303">
        <ele>23.69</ele>
        <time>2015-11-19T14:09:05Z</time>
      </trkpt>
      <trkpt lat="48.03047" lon="-4.53038">
        <ele>23.21</ele>
        <time>2015-11-19T14:09:20Z</time>
      </trkpt>
      <trkpt lat="48.03065" lon="-4.53051">
        <ele>24.65</ele>
        <time>2015-11-19T14:09:38Z</time>
      </trkpt>
      <trkpt lat="48.03072" lon="-4.53056">
        <ele>26.09</ele>
        <time>2015-11-19T14:09:45Z</time>
      </trkpt>
      <trkpt lat="48.03078" lon="-4.5306">
        <ele>26.57</ele>
        <time>2015-11-19T14:09:54Z</time>
      </trkpt>
      <trkpt lat="48.03089" lon="-4.53065">
        <ele>23.69</ele>
        <time>2015-11-19T14:10:09Z</time>
      </trkpt>
      <trkpt lat="48.03098" lon="-4.53068">
        <ele>23.21</ele>
        <time>2015-11-19T14:10:19Z</time>
      </trkpt>
      <trkpt lat="48.03105" lon="-4.53073">
        <ele>23.69</ele>
        <time>2015-11-19T14:10:28Z</time>
      </trkpt>
      <trkpt lat="48.03112" lon="-4.53077">
        <ele>23.69</ele>
        <time>2015-11-19T14:10:34Z</time>
      </trkpt>
      <trkpt lat="48.03126" lon="-4.53086">
        <ele>24.65</ele>
        <time>2015-11-19T14:10:47Z</time>
      </trkpt>
      <trkpt lat="48.03128" lon="-4.53088">
        <ele>25.13</ele>
        <time>2015-11-19T14:10:49Z</time>
      </trkpt>
      <trkpt lat="48.03138" lon="-4.53097">
        <ele>23.21</ele>
        <time>2015-11-19T14:11:02Z</time>
      </trkpt>
      <trkpt lat="48.03147" lon="-4.53106">
        <ele>21.29</ele>
        <time>2015-11-19T14:11:12Z</time>
      </trkpt>
      <trkpt lat="48.03148" lon="-4.53113">
        <ele>20.81</ele>
        <time>2015-11-19T14:11:16Z</time>
      </trkpt>
      <trkpt lat="48.03147" lon="-4.53126">
        <ele>21.77</ele>
        <time>2015-11-19T14:11:30Z</time>
      </trkpt>
      <trkpt lat="48.03146" lon="-4.53129">
        <ele>22.73</ele>
        <time>2015-11-19T14:11:33Z</time>
      </trkpt>
      <trkpt lat="48.03145" lon="-4.53136">
        <ele>22.25</ele>
        <time>2015-11-19T14:11:38Z</time>
      </trkpt>
      <trkpt lat="48.03143" lon="-4.5314">
        <ele>22.25</ele>
        <time>2015-11-19T14:11:41Z</time>
      </trkpt>
      <trkpt lat="48.03138" lon="-4.53157">
        <ele>21.77</ele>
        <time>2015-11-19T14:11:53Z</time>
      </trkpt>
      <trkpt lat="48.03131" lon="-4.53174">
        <ele>19.36</ele>
        <time>2015-11-19T14:12:06Z</time>
      </trkpt>
      <trkpt lat="48.03124" lon="-4.53196">
        <ele>17.92</ele>
        <time>2015-11-19T14:12:21Z</time>
      </trkpt>
      <trkpt lat="48.03119" lon="-4.53212">
        <ele>16.48</ele>
        <time>2015-11-19T14:12:33Z</time>
      </trkpt>
      <trkpt lat="48.03117" lon="-4.53216">
        <ele>15.52</ele>
        <time>2015-11-19T14:12:37Z</time>
      </trkpt>
      <trkpt lat="48.03116" lon="-4.5322">
        <ele>14.56</ele>
        <time>2015-11-19T14:12:40Z</time>
      </trkpt>
      <trkpt lat="48.03115" lon="-4.53222">
        <ele>14.56</ele>
        <time>2015-11-19T14:12:42Z</time>
      </trkpt>
      <trkpt lat="48.03108" lon="-4.5324">
        <ele>10.23</ele>
        <time>2015-11-19T14:12:57Z</time>
      </trkpt>
      <trkpt lat="48.03102" lon="-4.53256">
        <ele>6.87</ele>
        <time>2015-11-19T14:13:06Z</time>
      </trkpt>
      <trkpt lat="48.03096" lon="-4.53274">
        <ele>1.1</ele>
        <time>2015-11-19T14:13:19Z</time>
      </trkpt>
      <trkpt lat="48.03094" lon="-4.53281">
        <ele>-0.34</ele>
        <time>2015-11-19T14:13:23Z</time>
      </trkpt>
      <trkpt lat="48.03093" lon="-4.53285">
        <ele>2.06</ele>
        <time>2015-11-19T14:13:35Z</time>
      </trkpt>
      <trkpt lat="48.03091" lon="-4.53279">
        <ele>3.5</ele>
        <time>2015-11-19T14:13:45Z</time>
      </trkpt>
      <trkpt lat="48.03086" lon="-4.53272">
        <ele>2.54</ele>
        <time>2015-11-19T14:13:57Z</time>
      </trkpt>
      <trkpt lat="48.03083" lon="-4.53268">
        <ele>3.02</ele>
        <time>2015-11-19T14:14:00Z</time>
      </trkpt>
      <trkpt lat="48.03065" lon="-4.53253">
        <ele>2.06</ele>
        <time>2015-11-19T14:14:14Z</time>
      </trkpt>
      <trkpt lat="48.03049" lon="-4.53242">
        <ele>1.58</ele>
        <time>2015-11-19T14:14:27Z</time>
      </trkpt>
      <trkpt lat="48.0303" lon="-4.53225">
        <ele>3.98</ele>
        <time>2015-11-19T14:14:43Z</time>
      </trkpt>
      <trkpt lat="48.03029" lon="-4.53224">
        <ele>3.98</ele>
        <time>2015-11-19T14:14:44Z</time>
      </trkpt>
      <trkpt lat="48.03024" lon="-4.53221">
        <ele>3.5</ele>
        <time>2015-11-19T14:14:48Z</time>
      </trkpt>
      <trkpt lat="48.03022" lon="-4.5322">
        <ele>3.02</ele>
        <time>2015-11-19T14:14:50Z</time>
      </trkpt>
      <trkpt lat="48.03011" lon="-4.53206">
        <ele>0.14</ele>
        <time>2015-11-19T14:15:04Z</time>
      </trkpt>
      <trkpt lat="48.0301" lon="-4.53203">
        <ele>-0.34</ele>
        <time>2015-11-19T14:15:06Z</time>
      </trkpt>
      <trkpt lat="48.02998" lon="-4.53188">
        <ele>-1.3</ele>
        <time>2015-11-19T14:15:20Z</time>
      </trkpt>
      <trkpt lat="48.02996" lon="-4.53185">
        <ele>-1.79</ele>
        <time>2015-11-19T14:15:23Z</time>
      </trkpt>
      <trkpt lat="48.02987" lon="-4.53177">
        <ele>-2.27</ele>
        <time>2015-11-19T14:15:32Z</time>
      </trkpt>
      <trkpt lat="48.02972" lon="-4.53164">
        <ele>-1.3</ele>
        <time>2015-11-19T14:15:46Z</time>
      </trkpt>
      <trkpt lat="48.02964" lon="-4.53157">
        <ele>-2.27</ele>
        <time>2015-11-19T14:15:54Z</time>
      </trkpt>
      <trkpt lat="48.02954" lon="-4.53149">
        <ele>-2.75</ele>
        <time>2015-11-19T14:16:04Z</time>
      </trkpt>
      <trkpt lat="48.02941" lon="-4.53141">
        <ele>-3.23</ele>
        <time>2015-11-19T14:16:18Z</time>
      </trkpt>
      <trkpt lat="48.02936" lon="-4.53141">
        <ele>-3.23</ele>
        <time>2015-11-19T14:16:25Z</time>
      </trkpt>
      <trkpt lat="48.02931" lon="-4.53137">
        <ele>-3.23</ele>
        <time>2015-11-19T14:16:29Z</time>
      </trkpt>
      <trkpt lat="48.02923" lon="-4.53133">
        <ele>-0.34</ele>
        <time>2015-11-19T14:16:37Z</time>
      </trkpt>
      <trkpt lat="48.02915" lon="-4.53125">
        <ele>1.1</ele>
        <time>2015-11-19T14:16:46Z</time>
      </trkpt>
      <trkpt lat="48.0291" lon="-4.53116">
        <ele>2.54</ele>
        <time>2015-11-19T14:16:57Z</time>
      </trkpt>
      <trkpt lat="48.02901" lon="-4.53108">
        <ele>3.02</ele>
        <time>2015-11-19T14:17:06Z</time>
      </trkpt>
      <trkpt lat="48.02889" lon="-4.53102">
        <ele>2.54</ele>
        <time>2015-11-19T14:17:18Z</time>
      </trkpt>
      <trkpt lat="48.02882" lon="-4.53101">
        <ele>1.1</ele>
        <time>2015-11-19T14:17:24Z</time>
      </trkpt>
      <trkpt lat="48.02879" lon="-4.531">
        <ele>0.62</ele>
        <time>2015-11-19T14:17:27Z</time>
      </trkpt>
      <trkpt lat="48.02867" lon="-4.53095">
        <ele>0.62</ele>
        <time>2015-11-19T14:17:36Z</time>
      </trkpt>
      <trkpt lat="48.02857" lon="-4.53087">
        <ele>0.62</ele>
        <time>2015-11-19T14:17:44Z</time>
      </trkpt>
      <trkpt lat="48.02856" lon="-4.53084">
        <ele>0.62</ele>
        <time>2015-11-19T14:17:46Z</time>
      </trkpt>
      <trkpt lat="48.02844" lon="-4.53079">
        <ele>1.1</ele>
        <time>2015-11-19T14:17:59Z</time>
      </trkpt>
      <trkpt lat="48.02833" lon="-4.53076">
        <ele>1.58</ele>
        <time>2015-11-19T14:18:11Z</time>
      </trkpt>
      <trkpt lat="48.02822" lon="-4.53074">
        <ele>1.58</ele>
        <time>2015-11-19T14:18:23Z</time>
      </trkpt>
      <trkpt lat="48.02805" lon="-4.53076">
        <ele>1.1</ele>
        <time>2015-11-19T14:18:33Z</time>
      </trkpt>
      <trkpt lat="48.02788" lon="-4.53077">
        <ele>-2.27</ele>
        <time>2015-11-19T14:18:47Z</time>
      </trkpt>
      <trkpt lat="48.02771" lon="-4.53082">
        <ele>-2.75</ele>
        <time>2015-11-19T14:19:01Z</time>
      </trkpt>
      <trkpt lat="48.0276" lon="-4.53087">
        <ele>0.14</ele>
        <time>2015-11-19T14:19:16Z</time>
      </trkpt>
      <trkpt lat="48.02759" lon="-4.531">
        <ele>4.94</ele>
        <time>2015-11-19T14:19:29Z</time>
      </trkpt>
      <trkpt lat="48.02745" lon="-4.53122">
        <ele>5.42</ele>
        <time>2015-11-19T14:19:43Z</time>
      </trkpt>
      <trkpt lat="48.02735" lon="-4.53133">
        <ele>7.83</ele>
        <time>2015-11-19T14:19:57Z</time>
      </trkpt>
      <trkpt lat="48.02725" lon="-4.5314">
        <ele>11.19</ele>
        <time>2015-11-19T14:20:11Z</time>
      </trkpt>
      <trkpt lat="48.02717" lon="-4.53149">
        <ele>12.15</ele>
        <time>2015-11-19T14:20:23Z</time>
      </trkpt>
      <trkpt lat="48.02703" lon="-4.53166">
        <ele>11.67</ele>
        <time>2015-11-19T14:20:38Z</time>
      </trkpt>
      <trkpt lat="48.02693" lon="-4.53189">
        <ele>14.56</ele>
        <time>2015-11-19T14:20:53Z</time>
      </trkpt>
      <trkpt lat="48.02678" lon="-4.53206">
        <ele>13.6</ele>
        <time>2015-11-19T14:21:08Z</time>
      </trkpt>
      <trkpt lat="48.02662" lon="-4.53234">
        <ele>12.15</ele>
        <time>2015-11-19T14:21:30Z</time>
      </trkpt>
      <trkpt lat="48.0266" lon="-4.5325">
        <ele>16.48</ele>
        <time>2015-11-19T14:21:43Z</time>
      </trkpt>
      <trkpt lat="48.02656" lon="-4.53271">
        <ele>12.63</ele>
        <time>2015-11-19T14:21:59Z</time>
      </trkpt>
      <trkpt lat="48.02646" lon="-4.53281">
        <ele>10.71</ele>
        <time>2015-11-19T14:22:12Z</time>
      </trkpt>
      <trkpt lat="48.02637" lon="-4.53281">
        <ele>7.83</ele>
        <time>2015-11-19T14:22:24Z</time>
      </trkpt>
      <trkpt lat="48.02631" lon="-4.53272">
        <ele>6.87</ele>
        <time>2015-11-19T14:22:31Z</time>
      </trkpt>
      <trkpt lat="48.02618" lon="-4.53257">
        <ele>5.42</ele>
        <time>2015-11-19T14:22:46Z</time>
      </trkpt>
      <trkpt lat="48.02615" lon="-4.53254">
        <ele>5.42</ele>
        <time>2015-11-19T14:22:50Z</time>
      </trkpt>
      <trkpt lat="48.02605" lon="-4.53247">
        <ele>4.94</ele>
        <time>2015-11-19T14:22:59Z</time>
      </trkpt>
      <trkpt lat="48.02599" lon="-4.5323">
        <ele>6.39</ele>
        <time>2015-11-19T14:23:12Z</time>
      </trkpt>
      <trkpt lat="48.02601" lon="-4.53211">
        <ele>8.31</ele>
        <time>2015-11-19T14:23:28Z</time>
      </trkpt>
      <trkpt lat="48.02603" lon="-4.53203">
        <ele>10.23</ele>
        <time>2015-11-19T14:23:42Z</time>
      </trkpt>
      <trkpt lat="48.026" lon="-4.53183">
        <ele>14.56</ele>
        <time>2015-11-19T14:23:57Z</time>
      </trkpt>
      <trkpt lat="48.02595" lon="-4.53166">
        <ele>15.04</ele>
        <time>2015-11-19T14:24:11Z</time>
      </trkpt>
      <trkpt lat="48.02594" lon="-4.53153">
        <ele>15.04</ele>
        <time>2015-11-19T14:24:25Z</time>
      </trkpt>
      <trkpt lat="48.02597" lon="-4.5315">
        <ele>16.48</ele>
        <time>2015-11-19T14:24:38Z</time>
      </trkpt>
      <trkpt lat="48.02592" lon="-4.53144">
        <ele>17.44</ele>
        <time>2015-11-19T14:24:53Z</time>
      </trkpt>
      <trkpt lat="48.02589" lon="-4.53129">
        <ele>16</ele>
        <time>2015-11-19T14:25:08Z</time>
      </trkpt>
      <trkpt lat="48.02583" lon="-4.53115">
        <ele>13.6</ele>
        <time>2015-11-19T14:25:22Z</time>
      </trkpt>
      <trkpt lat="48.02577" lon="-4.53104">
        <ele>13.12</ele>
        <time>2015-11-19T14:25:32Z</time>
      </trkpt>
      <trkpt lat="48.02573" lon="-4.53096">
        <ele>16.48</ele>
        <time>2015-11-19T14:25:43Z</time>
      </trkpt>
      <trkpt lat="48.02573" lon="-4.53094">
        <ele>16.96</ele>
        <time>2015-11-19T14:25:46Z</time>
      </trkpt>
      <trkpt lat="48.02563" lon="-4.53073">
        <ele>18.4</ele>
        <time>2015-11-19T14:25:59Z</time>
      </trkpt>
      <trkpt lat="48.02565" lon="-4.53071">
        <ele>19.84</ele>
        <time>2015-11-19T14:26:12Z</time>
      </trkpt>
      <trkpt lat="48.02564" lon="-4.53071">
        <ele>20.32</ele>
        <time>2015-11-19T14:26:28Z</time>
      </trkpt>
      <trkpt lat="48.02564" lon="-4.5307">
        <ele>20.32</ele>
        <time>2015-11-19T14:26:33Z</time>
      </trkpt>
      <trkpt lat="48.02563" lon="-4.53071">
        <ele>18.88</ele>
        <time>2015-11-19T14:26:49Z</time>
      </trkpt>
      <trkpt lat="48.02559" lon="-4.5306">
        <ele>18.88</ele>
        <time>2015-11-19T14:27:03Z</time>
      </trkpt>
      <trkpt lat="48.02555" lon="-4.53052">
        <ele>16.96</ele>
        <time>2015-11-19T14:27:21Z</time>
      </trkpt>
      <trkpt lat="48.02554" lon="-4.53047">
        <ele>17.92</ele>
        <time>2015-11-19T14:27:36Z</time>
      </trkpt>
      <trkpt lat="48.02554" lon="-4.53048">
        <ele>16.48</ele>
        <time>2015-11-19T14:27:54Z</time>
      </trkpt>
      <trkpt lat="48.02555" lon="-4.53049">
        <ele>17.44</ele>
        <time>2015-11-19T14:28:11Z</time>
      </trkpt>
      <trkpt lat="48.02555" lon="-4.53048">
        <ele>17.92</ele>
        <time>2015-11-19T14:28:28Z</time>
      </trkpt>
      <trkpt lat="48.02557" lon="-4.53048">
        <ele>16.96</ele>
        <time>2015-11-19T14:28:50Z</time>
      </trkpt>
      <trkpt lat="48.02556" lon="-4.53051">
        <ele>18.88</ele>
        <time>2015-11-19T14:29:09Z</time>
      </trkpt>
      <trkpt lat="48.02556" lon="-4.5305">
        <ele>21.29</ele>
        <time>2015-11-19T14:29:30Z</time>
      </trkpt>
      <trkpt lat="48.02554" lon="-4.53049">
        <ele>23.69</ele>
        <time>2015-11-19T14:29:59Z</time>
      </trkpt>
      <trkpt lat="48.02554" lon="-4.5304">
        <ele>23.21</ele>
        <time>2015-11-19T14:30:19Z</time>
      </trkpt>
      <trkpt lat="48.02555" lon="-4.53026">
        <ele>23.21</ele>
        <time>2015-11-19T14:30:33Z</time>
      </trkpt>
      <trkpt lat="48.02549" lon="-4.53004">
        <ele>21.77</ele>
        <time>2015-11-19T14:30:47Z</time>
      </trkpt>
      <trkpt lat="48.02549" lon="-4.52992">
        <ele>23.21</ele>
        <time>2015-11-19T14:31:00Z</time>
      </trkpt>
      <trkpt lat="48.02548" lon="-4.52974">
        <ele>22.73</ele>
        <time>2015-11-19T14:31:14Z</time>
      </trkpt>
      <trkpt lat="48.0255" lon="-4.5296">
        <ele>27.05</ele>
        <time>2015-11-19T14:31:25Z</time>
      </trkpt>
      <trkpt lat="48.0255" lon="-4.52946">
        <ele>35.23</ele>
        <time>2015-11-19T14:31:36Z</time>
      </trkpt>
      <trkpt lat="48.02545" lon="-4.52935">
        <ele>37.15</ele>
        <time>2015-11-19T14:31:50Z</time>
      </trkpt>
      <trkpt lat="48.02544" lon="-4.52914">
        <ele>34.74</ele>
        <time>2015-11-19T14:32:02Z</time>
      </trkpt>
      <trkpt lat="48.02541" lon="-4.52895">
        <ele>35.23</ele>
        <time>2015-11-19T14:32:14Z</time>
      </trkpt>
      <trkpt lat="48.02545" lon="-4.52871">
        <ele>31.86</ele>
        <time>2015-11-19T14:32:28Z</time>
      </trkpt>
      <trkpt lat="48.02549" lon="-4.52854">
        <ele>27.53</ele>
        <time>2015-11-19T14:32:40Z</time>
      </trkpt>
      <trkpt lat="48.02552" lon="-4.52836">
        <ele>26.09</ele>
        <time>2015-11-19T14:32:51Z</time>
      </trkpt>
      <trkpt lat="48.02549" lon="-4.52814">
        <ele>24.17</ele>
        <time>2015-11-19T14:33:02Z</time>
      </trkpt>
      <trkpt lat="48.02551" lon="-4.52786">
        <ele>25.61</ele>
        <time>2015-11-19T14:33:16Z</time>
      </trkpt>
      <trkpt lat="48.02549" lon="-4.52768">
        <ele>27.53</ele>
        <time>2015-11-19T14:33:29Z</time>
      </trkpt>
      <trkpt lat="48.02552" lon="-4.52744">
        <ele>28.98</ele>
        <time>2015-11-19T14:33:43Z</time>
      </trkpt>
      <trkpt lat="48.02552" lon="-4.52714">
        <ele>34.74</ele>
        <time>2015-11-19T14:33:58Z</time>
      </trkpt>
      <trkpt lat="48.02542" lon="-4.52698">
        <ele>35.71</ele>
        <time>2015-11-19T14:34:08Z</time>
      </trkpt>
      <trkpt lat="48.02529" lon="-4.52683">
        <ele>32.82</ele>
        <time>2015-11-19T14:34:22Z</time>
      </trkpt>
      <trkpt lat="48.02517" lon="-4.5267">
        <ele>36.67</ele>
        <time>2015-11-19T14:34:35Z</time>
      </trkpt>
      <trkpt lat="48.02501" lon="-4.52671">
        <ele>37.63</ele>
        <time>2015-11-19T14:34:48Z</time>
      </trkpt>
      <trkpt lat="48.02497" lon="-4.52669">
        <ele>39.07</ele>
        <time>2015-11-19T14:35:03Z</time>
      </trkpt>
      <trkpt lat="48.02494" lon="-4.5267">
        <ele>40.51</ele>
        <time>2015-11-19T14:35:20Z</time>
      </trkpt>
      <trkpt lat="48.02487" lon="-4.52671">
        <ele>41.95</ele>
        <time>2015-11-19T14:35:33Z</time>
      </trkpt>
      <trkpt lat="48.02475" lon="-4.52673">
        <ele>44.36</ele>
        <time>2015-11-19T14:35:45Z</time>
      </trkpt>
      <trkpt lat="48.02468" lon="-4.5266">
        <ele>44.36</ele>
        <time>2015-11-19T14:35:59Z</time>
      </trkpt>
      <trkpt lat="48.02467" lon="-4.52659">
        <ele>44.36</ele>
        <time>2015-11-19T14:36:00Z</time>
      </trkpt>
      <trkpt lat="48.02464" lon="-4.52645">
        <ele>40.99</ele>
        <time>2015-11-19T14:36:12Z</time>
      </trkpt>
      <trkpt lat="48.0246" lon="-4.52632">
        <ele>40.51</ele>
        <time>2015-11-19T14:36:23Z</time>
      </trkpt>
      <trkpt lat="48.02457" lon="-4.52621">
        <ele>39.55</ele>
        <time>2015-11-19T14:36:30Z</time>
      </trkpt>
      <trkpt lat="48.02456" lon="-4.52616">
        <ele>39.55</ele>
        <time>2015-11-19T14:36:33Z</time>
      </trkpt>
      <trkpt lat="48.02446" lon="-4.52598">
        <ele>39.07</ele>
        <time>2015-11-19T14:36:49Z</time>
      </trkpt>
      <trkpt lat="48.02445" lon="-4.52596">
        <ele>39.07</ele>
        <time>2015-11-19T14:36:50Z</time>
      </trkpt>
      <trkpt lat="48.02443" lon="-4.52594">
        <ele>39.07</ele>
        <time>2015-11-19T14:36:52Z</time>
      </trkpt>
      <trkpt lat="48.02431" lon="-4.52579">
        <ele>39.07</ele>
        <time>2015-11-19T14:37:04Z</time>
      </trkpt>
      <trkpt lat="48.02425" lon="-4.52574">
        <ele>40.03</ele>
        <time>2015-11-19T14:37:10Z</time>
      </trkpt>
      <trkpt lat="48.02409" lon="-4.52555">
        <ele>44.84</ele>
        <time>2015-11-19T14:37:21Z</time>
      </trkpt>
      <trkpt lat="48.02399" lon="-4.52544">
        <ele>45.32</ele>
        <time>2015-11-19T14:37:33Z</time>
      </trkpt>
      <trkpt lat="48.0239" lon="-4.52533">
        <ele>44.84</ele>
        <time>2015-11-19T14:37:46Z</time>
      </trkpt>
      <trkpt lat="48.02385" lon="-4.52523">
        <ele>45.32</ele>
        <time>2015-11-19T14:37:58Z</time>
      </trkpt>
      <trkpt lat="48.02374" lon="-4.525">
        <ele>44.36</ele>
        <time>2015-11-19T14:38:11Z</time>
      </trkpt>
      <trkpt lat="48.02372" lon="-4.52485">
        <ele>38.59</ele>
        <time>2015-11-19T14:38:23Z</time>
      </trkpt>
      <trkpt lat="48.0236" lon="-4.5246">
        <ele>36.19</ele>
        <time>2015-11-19T14:38:36Z</time>
      </trkpt>
      <trkpt lat="48.0236" lon="-4.52458">
        <ele>36.19</ele>
        <time>2015-11-19T14:38:37Z</time>
      </trkpt>
      <trkpt lat="48.02355" lon="-4.52448">
        <ele>33.78</ele>
        <time>2015-11-19T14:38:49Z</time>
      </trkpt>
      <trkpt lat="48.02355" lon="-4.52444">
        <ele>33.78</ele>
        <time>2015-11-19T14:38:55Z</time>
      </trkpt>
      <trkpt lat="48.0235" lon="-4.52431">
        <ele>34.26</ele>
        <time>2015-11-19T14:39:01Z</time>
      </trkpt>
      <trkpt lat="48.02337" lon="-4.52405">
        <ele>34.74</ele>
        <time>2015-11-19T14:39:15Z</time>
      </trkpt>
      <trkpt lat="48.02321" lon="-4.52379">
        <ele>39.55</ele>
        <time>2015-11-19T14:39:29Z</time>
      </trkpt>
      <trkpt lat="48.0231" lon="-4.52362">
        <ele>42.44</ele>
        <time>2015-11-19T14:39:39Z</time>
      </trkpt>
      <trkpt lat="48.02308" lon="-4.52355">
        <ele>43.4</ele>
        <time>2015-11-19T14:39:44Z</time>
      </trkpt>
      <trkpt lat="48.02305" lon="-4.5235">
        <ele>44.36</ele>
        <time>2015-11-19T14:39:47Z</time>
      </trkpt>
      <trkpt lat="48.02293" lon="-4.5233">
        <ele>47.24</ele>
        <time>2015-11-19T14:39:58Z</time>
      </trkpt>
      <trkpt lat="48.02292" lon="-4.52327">
        <ele>47.72</ele>
        <time>2015-11-19T14:40:00Z</time>
      </trkpt>
      <trkpt lat="48.02279" lon="-4.52314">
        <ele>50.13</ele>
        <time>2015-11-19T14:40:11Z</time>
      </trkpt>
      <trkpt lat="48.02273" lon="-4.52307">
        <ele>50.61</ele>
        <time>2015-11-19T14:40:17Z</time>
      </trkpt>
      <trkpt lat="48.02267" lon="-4.52304">
        <ele>51.09</ele>
        <time>2015-11-19T14:40:22Z</time>
      </trkpt>
      <trkpt lat="48.02255" lon="-4.52284">
        <ele>51.57</ele>
        <time>2015-11-19T14:40:36Z</time>
      </trkpt>
      <trkpt lat="48.02254" lon="-4.52263">
        <ele>51.09</ele>
        <time>2015-11-19T14:40:49Z</time>
      </trkpt>
      <trkpt lat="48.02266" lon="-4.52252">
        <ele>52.53</ele>
        <time>2015-11-19T14:41:03Z</time>
      </trkpt>
      <trkpt lat="48.02282" lon="-4.52243">
        <ele>53.01</ele>
        <time>2015-11-19T14:41:17Z</time>
      </trkpt>
      <trkpt lat="48.02288" lon="-4.52238">
        <ele>54.45</ele>
        <time>2015-11-19T14:41:32Z</time>
      </trkpt>
      <trkpt lat="48.02295" lon="-4.52233">
        <ele>55.41</ele>
        <time>2015-11-19T14:41:44Z</time>
      </trkpt>
      <trkpt lat="48.02304" lon="-4.52231">
        <ele>56.86</ele>
        <time>2015-11-19T14:41:56Z</time>
      </trkpt>
      <trkpt lat="48.02315" lon="-4.52224">
        <ele>60.22</ele>
        <time>2015-11-19T14:42:08Z</time>
      </trkpt>
      <trkpt lat="48.02323" lon="-4.52219">
        <ele>59.74</ele>
        <time>2015-11-19T14:42:19Z</time>
      </trkpt>
      <trkpt lat="48.02335" lon="-4.52216">
        <ele>61.18</ele>
        <time>2015-11-19T14:42:32Z</time>
      </trkpt>
      <trkpt lat="48.0235" lon="-4.52216">
        <ele>59.74</ele>
        <time>2015-11-19T14:42:45Z</time>
      </trkpt>
      <trkpt lat="48.02366" lon="-4.52212">
        <ele>62.14</ele>
        <time>2015-11-19T14:42:59Z</time>
      </trkpt>
      <trkpt lat="48.02385" lon="-4.52209">
        <ele>65.51</ele>
        <time>2015-11-19T14:43:14Z</time>
      </trkpt>
      <trkpt lat="48.02393" lon="-4.52207">
        <ele>65.51</ele>
        <time>2015-11-19T14:43:20Z</time>
      </trkpt>
      <trkpt lat="48.02395" lon="-4.52205">
        <ele>65.51</ele>
        <time>2015-11-19T14:43:22Z</time>
      </trkpt>
      <trkpt lat="48.02398" lon="-4.52206">
        <ele>65.51</ele>
        <time>2015-11-19T14:43:25Z</time>
      </trkpt>
      <trkpt lat="48.02408" lon="-4.522">
        <ele>64.55</ele>
        <time>2015-11-19T14:43:35Z</time>
      </trkpt>
      <trkpt lat="48.0241" lon="-4.52198">
        <ele>65.03</ele>
        <time>2015-11-19T14:43:37Z</time>
      </trkpt>
      <trkpt lat="48.02412" lon="-4.52197">
        <ele>65.51</ele>
        <time>2015-11-19T14:43:39Z</time>
      </trkpt>
      <trkpt lat="48.02416" lon="-4.52193">
        <ele>66.47</ele>
        <time>2015-11-19T14:43:42Z</time>
      </trkpt>
      <trkpt lat="48.02429" lon="-4.52185">
        <ele>67.43</ele>
        <time>2015-11-19T14:43:55Z</time>
      </trkpt>
      <trkpt lat="48.0244" lon="-4.52177">
        <ele>66.47</ele>
        <time>2015-11-19T14:44:06Z</time>
      </trkpt>
      <trkpt lat="48.02453" lon="-4.52168">
        <ele>65.99</ele>
        <time>2015-11-19T14:44:18Z</time>
      </trkpt>
      <trkpt lat="48.02456" lon="-4.52168">
        <ele>65.99</ele>
        <time>2015-11-19T14:44:21Z</time>
      </trkpt>
      <trkpt lat="48.02471" lon="-4.52158">
        <ele>65.99</ele>
        <time>2015-11-19T14:44:36Z</time>
      </trkpt>
      <trkpt lat="48.02477" lon="-4.52152">
        <ele>65.99</ele>
        <time>2015-11-19T14:44:42Z</time>
      </trkpt>
      <trkpt lat="48.0248" lon="-4.5215">
        <ele>66.47</ele>
        <time>2015-11-19T14:44:45Z</time>
      </trkpt>
      <trkpt lat="48.02489" lon="-4.52143">
        <ele>67.91</ele>
        <time>2015-11-19T14:44:53Z</time>
      </trkpt>
      <trkpt lat="48.0251" lon="-4.52131">
        <ele>70.31</ele>
        <time>2015-11-19T14:45:10Z</time>
      </trkpt>
      <trkpt lat="48.02525" lon="-4.52121">
        <ele>69.83</ele>
        <time>2015-11-19T14:45:23Z</time>
      </trkpt>
      <trkpt lat="48.02535" lon="-4.52092">
        <ele>70.31</ele>
        <time>2015-11-19T14:45:43Z</time>
      </trkpt>
      <trkpt lat="48.02533" lon="-4.52076">
        <ele>70.31</ele>
        <time>2015-11-19T14:45:52Z</time>
      </trkpt>
      <trkpt lat="48.02531" lon="-4.52067">
        <ele>69.35</ele>
        <time>2015-11-19T14:45:57Z</time>
      </trkpt>
      <trkpt lat="48.02526" lon="-4.52048">
        <ele>67.91</ele>
        <time>2015-11-19T14:46:11Z</time>
      </trkpt>
      <trkpt lat="48.02526" lon="-4.52045">
        <ele>67.43</ele>
        <time>2015-11-19T14:46:13Z</time>
      </trkpt>
      <trkpt lat="48.02523" lon="-4.52023">
        <ele>64.07</ele>
        <time>2015-11-19T14:46:26Z</time>
      </trkpt>
      <trkpt lat="48.02524" lon="-4.52012">
        <ele>64.55</ele>
        <time>2015-11-19T14:46:32Z</time>
      </trkpt>
      <trkpt lat="48.0252" lon="-4.51991">
        <ele>65.99</ele>
        <time>2015-11-19T14:46:44Z</time>
      </trkpt>
      <trkpt lat="48.02522" lon="-4.51967">
        <ele>68.39</ele>
        <time>2015-11-19T14:46:56Z</time>
      </trkpt>
      <trkpt lat="48.02525" lon="-4.51952">
        <ele>69.83</ele>
        <time>2015-11-19T14:47:04Z</time>
      </trkpt>
      <trkpt lat="48.02526" lon="-4.51949">
        <ele>70.31</ele>
        <time>2015-11-19T14:47:06Z</time>
      </trkpt>
      <trkpt lat="48.0253" lon="-4.51933">
        <ele>71.76</ele>
        <time>2015-11-19T14:47:16Z</time>
      </trkpt>
      <trkpt lat="48.02532" lon="-4.51928">
        <ele>72.72</ele>
        <time>2015-11-19T14:47:19Z</time>
      </trkpt>
      <trkpt lat="48.02533" lon="-4.51922">
        <ele>72.24</ele>
        <time>2015-11-19T14:47:22Z</time>
      </trkpt>
      <trkpt lat="48.02535" lon="-4.51918">
        <ele>73.2</ele>
        <time>2015-11-19T14:47:25Z</time>
      </trkpt>
      <trkpt lat="48.02539" lon="-4.51903">
        <ele>74.64</ele>
        <time>2015-11-19T14:47:33Z</time>
      </trkpt>
      <trkpt lat="48.02543" lon="-4.51883">
        <ele>74.16</ele>
        <time>2015-11-19T14:47:45Z</time>
      </trkpt>
      <trkpt lat="48.0255" lon="-4.51858">
        <ele>73.68</ele>
        <time>2015-11-19T14:48:00Z</time>
      </trkpt>
      <trkpt lat="48.02555" lon="-4.51841">
        <ele>73.2</ele>
        <time>2015-11-19T14:48:11Z</time>
      </trkpt>
      <trkpt lat="48.02559" lon="-4.51823">
        <ele>71.27</ele>
        <time>2015-11-19T14:48:23Z</time>
      </trkpt>
      <trkpt lat="48.02562" lon="-4.51809">
        <ele>70.79</ele>
        <time>2015-11-19T14:48:31Z</time>
      </trkpt>
      <trkpt lat="48.0257" lon="-4.51785">
        <ele>72.72</ele>
        <time>2015-11-19T14:48:43Z</time>
      </trkpt>
      <trkpt lat="48.02571" lon="-4.51783">
        <ele>72.72</ele>
        <time>2015-11-19T14:48:44Z</time>
      </trkpt>
      <trkpt lat="48.02576" lon="-4.51759">
        <ele>73.2</ele>
        <time>2015-11-19T14:48:58Z</time>
      </trkpt>
      <trkpt lat="48.02576" lon="-4.51755">
        <ele>73.2</ele>
        <time>2015-11-19T14:49:00Z</time>
      </trkpt>
      <trkpt lat="48.02586" lon="-4.5173">
        <ele>77.04</ele>
        <time>2015-11-19T14:49:15Z</time>
      </trkpt>
      <trkpt lat="48.02592" lon="-4.51722">
        <ele>78</ele>
        <time>2015-11-19T14:49:23Z</time>
      </trkpt>
      <trkpt lat="48.02603" lon="-4.51706">
        <ele>80.41</ele>
        <time>2015-11-19T14:49:37Z</time>
      </trkpt>
      <trkpt lat="48.02608" lon="-4.51693">
        <ele>80.41</ele>
        <time>2015-11-19T14:49:45Z</time>
      </trkpt>
      <trkpt lat="48.02612" lon="-4.51682">
        <ele>81.37</ele>
        <time>2015-11-19T14:49:51Z</time>
      </trkpt>
      <trkpt lat="48.02612" lon="-4.51676">
        <ele>81.37</ele>
        <time>2015-11-19T14:49:55Z</time>
      </trkpt>
      <trkpt lat="48.02605" lon="-4.51657">
        <ele>81.37</ele>
        <time>2015-11-19T14:50:07Z</time>
      </trkpt>
      <trkpt lat="48.02602" lon="-4.51637">
        <ele>80.89</ele>
        <time>2015-11-19T14:50:20Z</time>
      </trkpt>
      <trkpt lat="48.02602" lon="-4.5162">
        <ele>81.85</ele>
        <time>2015-11-19T14:50:29Z</time>
      </trkpt>
      <trkpt lat="48.02603" lon="-4.51609">
        <ele>82.81</ele>
        <time>2015-11-19T14:50:35Z</time>
      </trkpt>
      <trkpt lat="48.02606" lon="-4.51591">
        <ele>82.81</ele>
        <time>2015-11-19T14:50:45Z</time>
      </trkpt>
      <trkpt lat="48.02608" lon="-4.51581">
        <ele>83.29</ele>
        <time>2015-11-19T14:50:51Z</time>
      </trkpt>
      <trkpt lat="48.0261" lon="-4.51572">
        <ele>83.77</ele>
        <time>2015-11-19T14:50:56Z</time>
      </trkpt>
      <trkpt lat="48.02616" lon="-4.51545">
        <ele>85.21</ele>
        <time>2015-11-19T14:51:11Z</time>
      </trkpt>
      <trkpt lat="48.02619" lon="-4.51529">
        <ele>85.21</ele>
        <time>2015-11-19T14:51:20Z</time>
      </trkpt>
      <trkpt lat="48.02621" lon="-4.51522">
        <ele>85.69</ele>
        <time>2015-11-19T14:51:24Z</time>
      </trkpt>
      <trkpt lat="48.02626" lon="-4.51493">
        <ele>87.14</ele>
        <time>2015-11-19T14:51:40Z</time>
      </trkpt>
      <trkpt lat="48.0263" lon="-4.51475">
        <ele>85.69</ele>
        <time>2015-11-19T14:51:52Z</time>
      </trkpt>
      <trkpt lat="48.0263" lon="-4.5147">
        <ele>86.18</ele>
        <time>2015-11-19T14:51:55Z</time>
      </trkpt>
      <trkpt lat="48.02627" lon="-4.51467">
        <ele>87.14</ele>
        <time>2015-11-19T14:51:59Z</time>
      </trkpt>
      <trkpt lat="48.02624" lon="-4.51467">
        <ele>86.66</ele>
        <time>2015-11-19T14:52:01Z</time>
      </trkpt>
      <trkpt lat="48.02615" lon="-4.51467">
        <ele>87.62</ele>
        <time>2015-11-19T14:52:09Z</time>
      </trkpt>
      <trkpt lat="48.02599" lon="-4.51471">
        <ele>86.66</ele>
        <time>2015-11-19T14:52:22Z</time>
      </trkpt>
      <trkpt lat="48.02588" lon="-4.51473">
        <ele>85.69</ele>
        <time>2015-11-19T14:52:31Z</time>
      </trkpt>
      <trkpt lat="48.02578" lon="-4.51467">
        <ele>85.21</ele>
        <time>2015-11-19T14:52:43Z</time>
      </trkpt>
      <trkpt lat="48.02576" lon="-4.51466">
        <ele>84.73</ele>
        <time>2015-11-19T14:52:46Z</time>
      </trkpt>
      <trkpt lat="48.02573" lon="-4.51466">
        <ele>84.25</ele>
        <time>2015-11-19T14:52:49Z</time>
      </trkpt>
      <trkpt lat="48.02558" lon="-4.51468">
        <ele>88.1</ele>
        <time>2015-11-19T14:53:04Z</time>
      </trkpt>
      <trkpt lat="48.02549" lon="-4.5147">
        <ele>87.14</ele>
        <time>2015-11-19T14:53:15Z</time>
      </trkpt>
      <trkpt lat="48.02534" lon="-4.5147">
        <ele>84.73</ele>
        <time>2015-11-19T14:53:27Z</time>
      </trkpt>
      <trkpt lat="48.02531" lon="-4.51469">
        <ele>84.73</ele>
        <time>2015-11-19T14:53:30Z</time>
      </trkpt>
      <trkpt lat="48.02513" lon="-4.51473">
        <ele>83.77</ele>
        <time>2015-11-19T14:53:44Z</time>
      </trkpt>
      <trkpt lat="48.02498" lon="-4.51476">
        <ele>83.29</ele>
        <time>2015-11-19T14:53:59Z</time>
      </trkpt>
      <trkpt lat="48.02496" lon="-4.51476">
        <ele>82.81</ele>
        <time>2015-11-19T14:54:03Z</time>
      </trkpt>
      <trkpt lat="48.02487" lon="-4.51483">
        <ele>81.85</ele>
        <time>2015-11-19T14:54:14Z</time>
      </trkpt>
      <trkpt lat="48.02488" lon="-4.51489">
        <ele>81.85</ele>
        <time>2015-11-19T14:54:27Z</time>
      </trkpt>
      <trkpt lat="48.02487" lon="-4.51488">
        <ele>81.37</ele>
        <time>2015-11-19T14:54:33Z</time>
      </trkpt>
      <trkpt lat="48.02488" lon="-4.51489">
        <ele>81.37</ele>
        <time>2015-11-19T14:54:45Z</time>
      </trkpt>
      <trkpt lat="48.02487" lon="-4.5149">
        <ele>80.89</ele>
        <time>2015-11-19T14:54:58Z</time>
      </trkpt>
      <trkpt lat="48.02487" lon="-4.51491">
        <ele>81.37</ele>
        <time>2015-11-19T14:55:15Z</time>
      </trkpt>
      <trkpt lat="48.02488" lon="-4.51489">
        <ele>81.37</ele>
        <time>2015-11-19T14:55:24Z</time>
      </trkpt>
      <trkpt lat="48.02489" lon="-4.51491">
        <ele>81.85</ele>
        <time>2015-11-19T14:55:35Z</time>
      </trkpt>
      <trkpt lat="48.02488" lon="-4.51492">
        <ele>81.85</ele>
        <time>2015-11-19T14:55:50Z</time>
      </trkpt>
      <trkpt lat="48.02488" lon="-4.51492">
        <ele>81.85</ele>
        <time>2015-11-19T14:56:00Z</time>
      </trkpt>
      <trkpt lat="48.02485" lon="-4.51492">
        <ele>82.33</ele>
        <time>2015-11-19T14:56:09Z</time>
      </trkpt>
      <trkpt lat="48.02484" lon="-4.51489">
        <ele>83.29</ele>
        <time>2015-11-19T14:56:25Z</time>
      </trkpt>
      <trkpt lat="48.02483" lon="-4.51488">
        <ele>83.77</ele>
        <time>2015-11-19T14:56:48Z</time>
      </trkpt>
      <trkpt lat="48.0248" lon="-4.51485">
        <ele>83.29</ele>
        <time>2015-11-19T14:56:53Z</time>
      </trkpt>
      <trkpt lat="48.02472" lon="-4.51474">
        <ele>81.85</ele>
        <time>2015-11-19T14:57:06Z</time>
      </trkpt>
      <trkpt lat="48.02463" lon="-4.51459">
        <ele>80.89</ele>
        <time>2015-11-19T14:57:19Z</time>
      </trkpt>
      <trkpt lat="48.02462" lon="-4.51456">
        <ele>81.37</ele>
        <time>2015-11-19T14:57:21Z</time>
      </trkpt>
      <trkpt lat="48.02454" lon="-4.51445">
        <ele>83.29</ele>
        <time>2015-11-19T14:57:33Z</time>
      </trkpt>
      <trkpt lat="48.02449" lon="-4.51437">
        <ele>82.33</ele>
        <time>2015-11-19T14:57:46Z</time>
      </trkpt>
      <trkpt lat="48.02447" lon="-4.51432">
        <ele>82.81</ele>
        <time>2015-11-19T14:58:03Z</time>
      </trkpt>
      <trkpt lat="48.0244" lon="-4.51421">
        <ele>81.37</ele>
        <time>2015-11-19T14:58:12Z</time>
      </trkpt>
      <trkpt lat="48.02438" lon="-4.51416">
        <ele>80.89</ele>
        <time>2015-11-19T14:58:15Z</time>
      </trkpt>
      <trkpt lat="48.02434" lon="-4.51408">
        <ele>78</ele>
        <time>2015-11-19T14:58:23Z</time>
      </trkpt>
      <trkpt lat="48.02431" lon="-4.51406">
        <ele>77.04</ele>
        <time>2015-11-19T14:58:26Z</time>
      </trkpt>
      <trkpt lat="48.02422" lon="-4.51388">
        <ele>72.72</ele>
        <time>2015-11-19T14:58:42Z</time>
      </trkpt>
      <trkpt lat="48.02421" lon="-4.51385">
        <ele>73.2</ele>
        <time>2015-11-19T14:58:44Z</time>
      </trkpt>
      <trkpt lat="48.02409" lon="-4.51366">
        <ele>73.2</ele>
        <time>2015-11-19T14:58:57Z</time>
      </trkpt>
      <trkpt lat="48.02399" lon="-4.51351">
        <ele>71.76</ele>
        <time>2015-11-19T14:59:10Z</time>
      </trkpt>
      <trkpt lat="48.02386" lon="-4.51342">
        <ele>71.76</ele>
        <time>2015-11-19T14:59:22Z</time>
      </trkpt>
      <trkpt lat="48.02371" lon="-4.51331">
        <ele>72.72</ele>
        <time>2015-11-19T14:59:35Z</time>
      </trkpt>
      <trkpt lat="48.0236" lon="-4.51323">
        <ele>73.2</ele>
        <time>2015-11-19T14:59:44Z</time>
      </trkpt>
      <trkpt lat="48.0234" lon="-4.51308">
        <ele>75.12</ele>
        <time>2015-11-19T15:00:00Z</time>
      </trkpt>
      <trkpt lat="48.02325" lon="-4.51296">
        <ele>75.12</ele>
        <time>2015-11-19T15:00:14Z</time>
      </trkpt>
      <trkpt lat="48.02305" lon="-4.51282">
        <ele>75.6</ele>
        <time>2015-11-19T15:00:30Z</time>
      </trkpt>
      <trkpt lat="48.02289" lon="-4.51278">
        <ele>76.56</ele>
        <time>2015-11-19T15:00:42Z</time>
      </trkpt>
      <trkpt lat="48.0227" lon="-4.51278">
        <ele>77.04</ele>
        <time>2015-11-19T15:00:56Z</time>
      </trkpt>
      <trkpt lat="48.02252" lon="-4.51279">
        <ele>78</ele>
        <time>2015-11-19T15:01:10Z</time>
      </trkpt>
      <trkpt lat="48.02234" lon="-4.51279">
        <ele>78.97</ele>
        <time>2015-11-19T15:01:24Z</time>
      </trkpt>
      <trkpt lat="48.02217" lon="-4.51278">
        <ele>79.93</ele>
        <time>2015-11-19T15:01:37Z</time>
      </trkpt>
      <trkpt lat="48.02208" lon="-4.51277">
        <ele>80.41</ele>
        <time>2015-11-19T15:01:43Z</time>
      </trkpt>
      <trkpt lat="48.02189" lon="-4.51278">
        <ele>80.41</ele>
        <time>2015-11-19T15:01:59Z</time>
      </trkpt>
      <trkpt lat="48.02171" lon="-4.51276">
        <ele>80.89</ele>
        <time>2015-11-19T15:02:14Z</time>
      </trkpt>
      <trkpt lat="48.02168" lon="-4.51274">
        <ele>81.37</ele>
        <time>2015-11-19T15:02:17Z</time>
      </trkpt>
      <trkpt lat="48.02162" lon="-4.51263">
        <ele>82.33</ele>
        <time>2015-11-19T15:02:24Z</time>
      </trkpt>
      <trkpt lat="48.02161" lon="-4.51257">
        <ele>82.81</ele>
        <time>2015-11-19T15:02:28Z</time>
      </trkpt>
      <trkpt lat="48.0216" lon="-4.51249">
        <ele>83.77</ele>
        <time>2015-11-19T15:02:32Z</time>
      </trkpt>
      <trkpt lat="48.02172" lon="-4.51224">
        <ele>83.77</ele>
        <time>2015-11-19T15:02:50Z</time>
      </trkpt>
      <trkpt lat="48.0218" lon="-4.51206">
        <ele>83.29</ele>
        <time>2015-11-19T15:03:02Z</time>
      </trkpt>
      <trkpt lat="48.02183" lon="-4.51202">
        <ele>83.29</ele>
        <time>2015-11-19T15:03:05Z</time>
      </trkpt>
      <trkpt lat="48.02195" lon="-4.51178">
        <ele>84.73</ele>
        <time>2015-11-19T15:03:22Z</time>
      </trkpt>
      <trkpt lat="48.02206" lon="-4.51158">
        <ele>86.66</ele>
        <time>2015-11-19T15:03:36Z</time>
      </trkpt>
      <trkpt lat="48.02218" lon="-4.51136">
        <ele>88.1</ele>
        <time>2015-11-19T15:03:51Z</time>
      </trkpt>
      <trkpt lat="48.02228" lon="-4.51117">
        <ele>89.54</ele>
        <time>2015-11-19T15:04:04Z</time>
      </trkpt>
      <trkpt lat="48.02241" lon="-4.51094">
        <ele>90.98</ele>
        <time>2015-11-19T15:04:20Z</time>
      </trkpt>
      <trkpt lat="48.02253" lon="-4.5107">
        <ele>90.5</ele>
        <time>2015-11-19T15:04:36Z</time>
      </trkpt>
      <trkpt lat="48.02265" lon="-4.51048">
        <ele>88.58</ele>
        <time>2015-11-19T15:04:51Z</time>
      </trkpt>
      <trkpt lat="48.02278" lon="-4.51024">
        <ele>86.66</ele>
        <time>2015-11-19T15:05:07Z</time>
      </trkpt>
      <trkpt lat="48.02289" lon="-4.51001">
        <ele>85.69</ele>
        <time>2015-11-19T15:05:23Z</time>
      </trkpt>
      <trkpt lat="48.02301" lon="-4.50979">
        <ele>86.18</ele>
        <time>2015-11-19T15:05:38Z</time>
      </trkpt>
      <trkpt lat="48.02317" lon="-4.5095">
        <ele>86.66</ele>
        <time>2015-11-19T15:05:57Z</time>
      </trkpt>
      <trkpt lat="48.02329" lon="-4.5093">
        <ele>88.58</ele>
        <time>2015-11-19T15:06:12Z</time>
      </trkpt>
      <trkpt lat="48.02342" lon="-4.50903">
        <ele>90.5</ele>
        <time>2015-11-19T15:06:30Z</time>
      </trkpt>
      <trkpt lat="48.02358" lon="-4.50875">
        <ele>90.5</ele>
        <time>2015-11-19T15:06:49Z</time>
      </trkpt>
      <trkpt lat="48.02368" lon="-4.50852">
        <ele>89.06</ele>
        <time>2015-11-19T15:07:04Z</time>
      </trkpt>
      <trkpt lat="48.02374" lon="-4.5083">
        <ele>89.06</ele>
        <time>2015-11-19T15:07:16Z</time>
      </trkpt>
      <trkpt lat="48.02378" lon="-4.50821">
        <ele>89.54</ele>
        <time>2015-11-19T15:07:22Z</time>
      </trkpt>
      <trkpt lat="48.02381" lon="-4.50813">
        <ele>89.54</ele>
        <time>2015-11-19T15:07:27Z</time>
      </trkpt>
      <trkpt lat="48.02378" lon="-4.50805">
        <ele>89.54</ele>
        <time>2015-11-19T15:07:32Z</time>
      </trkpt>
      <trkpt lat="48.02373" lon="-4.50804">
        <ele>89.06</ele>
        <time>2015-11-19T15:07:37Z</time>
      </trkpt>
      <trkpt lat="48.02355" lon="-4.50799">
        <ele>86.66</ele>
        <time>2015-11-19T15:07:53Z</time>
      </trkpt>
      <trkpt lat="48.02335" lon="-4.50793">
        <ele>87.14</ele>
        <time>2015-11-19T15:08:08Z</time>
      </trkpt>
      <trkpt lat="48.02319" lon="-4.50787">
        <ele>85.21</ele>
        <time>2015-11-19T15:08:22Z</time>
      </trkpt>
      <trkpt lat="48.02314" lon="-4.50785">
        <ele>85.21</ele>
        <time>2015-11-19T15:08:26Z</time>
      </trkpt>
      <trkpt lat="48.02297" lon="-4.50777">
        <ele>83.77</ele>
        <time>2015-11-19T15:08:41Z</time>
      </trkpt>
      <trkpt lat="48.02295" lon="-4.50776">
        <ele>83.77</ele>
        <time>2015-11-19T15:08:42Z</time>
      </trkpt>
      <trkpt lat="48.02294" lon="-4.50769">
        <ele>83.29</ele>
        <time>2015-11-19T15:08:46Z</time>
      </trkpt>
      <trkpt lat="48.02295" lon="-4.50756">
        <ele>83.77</ele>
        <time>2015-11-19T15:08:53Z</time>
      </trkpt>
      <trkpt lat="48.023" lon="-4.50747">
        <ele>84.25</ele>
        <time>2015-11-19T15:09:00Z</time>
      </trkpt>
      <trkpt lat="48.02316" lon="-4.50722">
        <ele>87.14</ele>
        <time>2015-11-19T15:09:18Z</time>
      </trkpt>
      <trkpt lat="48.02321" lon="-4.50713">
        <ele>89.06</ele>
        <time>2015-11-19T15:09:24Z</time>
      </trkpt>
      <trkpt lat="48.02323" lon="-4.507">
        <ele>90.02</ele>
        <time>2015-11-19T15:09:31Z</time>
      </trkpt>
      <trkpt lat="48.02321" lon="-4.5069">
        <ele>90.02</ele>
        <time>2015-11-19T15:09:37Z</time>
      </trkpt>
      <trkpt lat="48.02313" lon="-4.50666">
        <ele>89.06</ele>
        <time>2015-11-19T15:09:52Z</time>
      </trkpt>
      <trkpt lat="48.02306" lon="-4.50648">
        <ele>87.62</ele>
        <time>2015-11-19T15:10:04Z</time>
      </trkpt>
      <trkpt lat="48.02297" lon="-4.50624">
        <ele>89.06</ele>
        <time>2015-11-19T15:10:18Z</time>
      </trkpt>
      <trkpt lat="48.02289" lon="-4.50603">
        <ele>88.58</ele>
        <time>2015-11-19T15:10:31Z</time>
      </trkpt>
      <trkpt lat="48.02276" lon="-4.5058">
        <ele>88.58</ele>
        <time>2015-11-19T15:10:47Z</time>
      </trkpt>
      <trkpt lat="48.02265" lon="-4.50559">
        <ele>87.62</ele>
        <time>2015-11-19T15:11:02Z</time>
      </trkpt>
      <trkpt lat="48.02254" lon="-4.5054">
        <ele>87.62</ele>
        <time>2015-11-19T15:11:15Z</time>
      </trkpt>
      <trkpt lat="48.0224" lon="-4.50517">
        <ele>89.06</ele>
        <time>2015-11-19T15:11:30Z</time>
      </trkpt>
      <trkpt lat="48.02228" lon="-4.50494">
        <ele>89.54</ele>
        <time>2015-11-19T15:11:45Z</time>
      </trkpt>
      <trkpt lat="48.02216" lon="-4.50469">
        <ele>90.5</ele>
        <time>2015-11-19T15:12:00Z</time>
      </trkpt>
      <trkpt lat="48.02214" lon="-4.50462">
        <ele>90.98</ele>
        <time>2015-11-19T15:12:04Z</time>
      </trkpt>
      <trkpt lat="48.02218" lon="-4.50452">
        <ele>91.46</ele>
        <time>2015-11-19T15:12:10Z</time>
      </trkpt>
      <trkpt lat="48.02227" lon="-4.50444">
        <ele>92.42</ele>
        <time>2015-11-19T15:12:19Z</time>
      </trkpt>
      <trkpt lat="48.02245" lon="-4.50434">
        <ele>92.9</ele>
        <time>2015-11-19T15:12:35Z</time>
      </trkpt>
      <trkpt lat="48.02248" lon="-4.50433">
        <ele>92.9</ele>
        <time>2015-11-19T15:12:38Z</time>
      </trkpt>
      <trkpt lat="48.02254" lon="-4.5043">
        <ele>93.39</ele>
        <time>2015-11-19T15:12:42Z</time>
      </trkpt>
      <trkpt lat="48.02265" lon="-4.50424">
        <ele>94.35</ele>
        <time>2015-11-19T15:12:51Z</time>
      </trkpt>
      <trkpt lat="48.02273" lon="-4.5042">
        <ele>95.31</ele>
        <time>2015-11-19T15:12:57Z</time>
      </trkpt>
      <trkpt lat="48.02285" lon="-4.50413">
        <ele>95.79</ele>
        <time>2015-11-19T15:13:08Z</time>
      </trkpt>
      <trkpt lat="48.02296" lon="-4.50405">
        <ele>95.31</ele>
        <time>2015-11-19T15:13:18Z</time>
      </trkpt>
      <trkpt lat="48.023" lon="-4.50402">
        <ele>94.83</ele>
        <time>2015-11-19T15:13:21Z</time>
      </trkpt>
      <trkpt lat="48.02306" lon="-4.50395">
        <ele>94.35</ele>
        <time>2015-11-19T15:13:26Z</time>
      </trkpt>
      <trkpt lat="48.02312" lon="-4.50387">
        <ele>94.35</ele>
        <time>2015-11-19T15:13:32Z</time>
      </trkpt>
      <trkpt lat="48.02316" lon="-4.5038">
        <ele>94.35</ele>
        <time>2015-11-19T15:13:37Z</time>
      </trkpt>
      <trkpt lat="48.02318" lon="-4.50375">
        <ele>94.35</ele>
        <time>2015-11-19T15:13:40Z</time>
      </trkpt>
      <trkpt lat="48.02322" lon="-4.50363">
        <ele>94.83</ele>
        <time>2015-11-19T15:13:47Z</time>
      </trkpt>
      <trkpt lat="48.02324" lon="-4.50358">
        <ele>93.87</ele>
        <time>2015-11-19T15:13:50Z</time>
      </trkpt>
      <trkpt lat="48.02327" lon="-4.50354">
        <ele>93.39</ele>
        <time>2015-11-19T15:13:53Z</time>
      </trkpt>
      <trkpt lat="48.02329" lon="-4.50345">
        <ele>92.9</ele>
        <time>2015-11-19T15:13:58Z</time>
      </trkpt>
      <trkpt lat="48.02332" lon="-4.50341">
        <ele>92.42</ele>
        <time>2015-11-19T15:14:01Z</time>
      </trkpt>
      <trkpt lat="48.02339" lon="-4.50323">
        <ele>90.98</ele>
        <time>2015-11-19T15:14:13Z</time>
      </trkpt>
      <trkpt lat="48.02341" lon="-4.50316">
        <ele>90.98</ele>
        <time>2015-11-19T15:14:17Z</time>
      </trkpt>
      <trkpt lat="48.02343" lon="-4.5031">
        <ele>90.98</ele>
        <time>2015-11-19T15:14:20Z</time>
      </trkpt>
      <trkpt lat="48.02348" lon="-4.50298">
        <ele>91.46</ele>
        <time>2015-11-19T15:14:28Z</time>
      </trkpt>
      <trkpt lat="48.02351" lon="-4.50293">
        <ele>91.46</ele>
        <time>2015-11-19T15:14:32Z</time>
      </trkpt>
      <trkpt lat="48.02358" lon="-4.50267">
        <ele>96.27</ele>
        <time>2015-11-19T15:14:45Z</time>
      </trkpt>
      <trkpt lat="48.02367" lon="-4.50241">
        <ele>97.71</ele>
        <time>2015-11-19T15:15:01Z</time>
      </trkpt>
      <trkpt lat="48.02368" lon="-4.50237">
        <ele>97.23</ele>
        <time>2015-11-19T15:15:03Z</time>
      </trkpt>
      <trkpt lat="48.02371" lon="-4.50226">
        <ele>97.23</ele>
        <time>2015-11-19T15:15:09Z</time>
      </trkpt>
      <trkpt lat="48.02373" lon="-4.50217">
        <ele>96.27</ele>
        <time>2015-11-19T15:15:14Z</time>
      </trkpt>
      <trkpt lat="48.0238" lon="-4.50188">
        <ele>97.23</ele>
        <time>2015-11-19T15:15:29Z</time>
      </trkpt>
      <trkpt lat="48.02387" lon="-4.50162">
        <ele>97.71</ele>
        <time>2015-11-19T15:15:43Z</time>
      </trkpt>
      <trkpt lat="48.02387" lon="-4.5016">
        <ele>97.71</ele>
        <time>2015-11-19T15:15:44Z</time>
      </trkpt>
      <trkpt lat="48.0239" lon="-4.50151">
        <ele>97.23</ele>
        <time>2015-11-19T15:15:49Z</time>
      </trkpt>
      <trkpt lat="48.02393" lon="-4.50141">
        <ele>97.71</ele>
        <time>2015-11-19T15:15:55Z</time>
      </trkpt>
      <trkpt lat="48.02396" lon="-4.50126">
        <ele>98.19</ele>
        <time>2015-11-19T15:16:03Z</time>
      </trkpt>
      <trkpt lat="48.02401" lon="-4.50098">
        <ele>99.15</ele>
        <time>2015-11-19T15:16:19Z</time>
      </trkpt>
      <trkpt lat="48.02408" lon="-4.5007">
        <ele>98.67</ele>
        <time>2015-11-19T15:16:34Z</time>
      </trkpt>
      <trkpt lat="48.0241" lon="-4.50066">
        <ele>99.15</ele>
        <time>2015-11-19T15:16:37Z</time>
      </trkpt>
      <trkpt lat="48.02425" lon="-4.5006">
        <ele>99.63</ele>
        <time>2015-11-19T15:16:50Z</time>
      </trkpt>
      <trkpt lat="48.0243" lon="-4.5006">
        <ele>100.6</ele>
        <time>2015-11-19T15:16:54Z</time>
      </trkpt>
      <trkpt lat="48.02448" lon="-4.50069">
        <ele>99.63</ele>
        <time>2015-11-19T15:17:09Z</time>
      </trkpt>
      <trkpt lat="48.02457" lon="-4.50075">
        <ele>99.15</ele>
        <time>2015-11-19T15:17:16Z</time>
      </trkpt>
      <trkpt lat="48.02463" lon="-4.50079">
        <ele>99.15</ele>
        <time>2015-11-19T15:17:21Z</time>
      </trkpt>
      <trkpt lat="48.02482" lon="-4.50092">
        <ele>100.6</ele>
        <time>2015-11-19T15:17:38Z</time>
      </trkpt>
      <trkpt lat="48.02485" lon="-4.50094">
        <ele>99.63</ele>
        <time>2015-11-19T15:17:41Z</time>
      </trkpt>
      <trkpt lat="48.02502" lon="-4.50099">
        <ele>98.67</ele>
        <time>2015-11-19T15:17:54Z</time>
      </trkpt>
      <trkpt lat="48.02507" lon="-4.50101">
        <ele>98.67</ele>
        <time>2015-11-19T15:17:58Z</time>
      </trkpt>
      <trkpt lat="48.02523" lon="-4.50113">
        <ele>99.63</ele>
        <time>2015-11-19T15:18:12Z</time>
      </trkpt>
      <trkpt lat="48.02538" lon="-4.50128">
        <ele>98.19</ele>
        <time>2015-11-19T15:18:26Z</time>
      </trkpt>
      <trkpt lat="48.02554" lon="-4.50137">
        <ele>96.27</ele>
        <time>2015-11-19T15:18:39Z</time>
      </trkpt>
      <trkpt lat="48.02568" lon="-4.50147">
        <ele>94.83</ele>
        <time>2015-11-19T15:18:50Z</time>
      </trkpt>
      <trkpt lat="48.0257" lon="-4.50149">
        <ele>94.35</ele>
        <time>2015-11-19T15:18:52Z</time>
      </trkpt>
      <trkpt lat="48.02582" lon="-4.50159">
        <ele>93.39</ele>
        <time>2015-11-19T15:19:02Z</time>
      </trkpt>
      <trkpt lat="48.02599" lon="-4.50168">
        <ele>91.94</ele>
        <time>2015-11-19T15:19:16Z</time>
      </trkpt>
      <trkpt lat="48.02603" lon="-4.50172">
        <ele>90.98</ele>
        <time>2015-11-19T15:19:20Z</time>
      </trkpt>
      <trkpt lat="48.02608" lon="-4.50174">
        <ele>90.02</ele>
        <time>2015-11-19T15:19:25Z</time>
      </trkpt>
      <trkpt lat="48.02613" lon="-4.50178">
        <ele>89.54</ele>
        <time>2015-11-19T15:19:29Z</time>
      </trkpt>
      <trkpt lat="48.02626" lon="-4.50181">
        <ele>87.62</ele>
        <time>2015-11-19T15:19:40Z</time>
      </trkpt>
      <trkpt lat="48.02628" lon="-4.50181">
        <ele>87.62</ele>
        <time>2015-11-19T15:19:42Z</time>
      </trkpt>
      <trkpt lat="48.02646" lon="-4.50187">
        <ele>85.69</ele>
        <time>2015-11-19T15:19:56Z</time>
      </trkpt>
      <trkpt lat="48.0265" lon="-4.50189">
        <ele>85.69</ele>
        <time>2015-11-19T15:19:59Z</time>
      </trkpt>
      <trkpt lat="48.02669" lon="-4.50197">
        <ele>86.66</ele>
        <time>2015-11-19T15:20:13Z</time>
      </trkpt>
      <trkpt lat="48.02684" lon="-4.50204">
        <ele>85.21</ele>
        <time>2015-11-19T15:20:26Z</time>
      </trkpt>
      <trkpt lat="48.02686" lon="-4.50205">
        <ele>85.21</ele>
        <time>2015-11-19T15:20:28Z</time>
      </trkpt>
      <trkpt lat="48.02696" lon="-4.5021">
        <ele>84.25</ele>
        <time>2015-11-19T15:20:36Z</time>
      </trkpt>
      <trkpt lat="48.02701" lon="-4.50212">
        <ele>84.25</ele>
        <time>2015-11-19T15:20:40Z</time>
      </trkpt>
      <trkpt lat="48.02719" lon="-4.50218">
        <ele>83.77</ele>
        <time>2015-11-19T15:20:54Z</time>
      </trkpt>
      <trkpt lat="48.0273" lon="-4.50216">
        <ele>84.25</ele>
        <time>2015-11-19T15:21:03Z</time>
      </trkpt>
      <trkpt lat="48.02743" lon="-4.50191">
        <ele>83.77</ele>
        <time>2015-11-19T15:21:19Z</time>
      </trkpt>
      <trkpt lat="48.02755" lon="-4.50164">
        <ele>82.33</ele>
        <time>2015-11-19T15:21:35Z</time>
      </trkpt>
      <trkpt lat="48.02764" lon="-4.50139">
        <ele>80.89</ele>
        <time>2015-11-19T15:21:51Z</time>
      </trkpt>
      <trkpt lat="48.02776" lon="-4.50111">
        <ele>81.37</ele>
        <time>2015-11-19T15:22:07Z</time>
      </trkpt>
      <trkpt lat="48.02787" lon="-4.50083">
        <ele>81.85</ele>
        <time>2015-11-19T15:22:24Z</time>
      </trkpt>
      <trkpt lat="48.02797" lon="-4.50056">
        <ele>81.85</ele>
        <time>2015-11-19T15:22:39Z</time>
      </trkpt>
      <trkpt lat="48.02807" lon="-4.50031">
        <ele>80.89</ele>
        <time>2015-11-19T15:22:54Z</time>
      </trkpt>
      <trkpt lat="48.02816" lon="-4.5001">
        <ele>78.97</ele>
        <time>2015-11-19T15:23:07Z</time>
      </trkpt>
      <trkpt lat="48.02827" lon="-4.49982">
        <ele>78.97</ele>
        <time>2015-11-19T15:23:23Z</time>
      </trkpt>
      <trkpt lat="48.0284" lon="-4.4995">
        <ele>78.97</ele>
        <time>2015-11-19T15:23:42Z</time>
      </trkpt>
      <trkpt lat="48.02851" lon="-4.49922">
        <ele>78</ele>
        <time>2015-11-19T15:23:59Z</time>
      </trkpt>
      <trkpt lat="48.02861" lon="-4.49896">
        <ele>75.6</ele>
        <time>2015-11-19T15:24:14Z</time>
      </trkpt>
      <trkpt lat="48.02864" lon="-4.4989">
        <ele>75.12</ele>
        <time>2015-11-19T15:24:18Z</time>
      </trkpt>
      <trkpt lat="48.02866" lon="-4.49882">
        <ele>74.64</ele>
        <time>2015-11-19T15:24:22Z</time>
      </trkpt>
      <trkpt lat="48.0288" lon="-4.49857">
        <ele>73.2</ele>
        <time>2015-11-19T15:24:39Z</time>
      </trkpt>
      <trkpt lat="48.02896" lon="-4.49842">
        <ele>73.68</ele>
        <time>2015-11-19T15:24:53Z</time>
      </trkpt>
      <trkpt lat="48.02912" lon="-4.49829">
        <ele>72.24</ele>
        <time>2015-11-19T15:25:08Z</time>
      </trkpt>
      <trkpt lat="48.0293" lon="-4.49814">
        <ele>72.72</ele>
        <time>2015-11-19T15:25:23Z</time>
      </trkpt>
      <trkpt lat="48.02949" lon="-4.49801">
        <ele>72.72</ele>
        <time>2015-11-19T15:25:39Z</time>
      </trkpt>
      <trkpt lat="48.02966" lon="-4.49789">
        <ele>74.16</ele>
        <time>2015-11-19T15:25:54Z</time>
      </trkpt>
      <trkpt lat="48.02975" lon="-4.49781">
        <ele>73.2</ele>
        <time>2015-11-19T15:26:02Z</time>
      </trkpt>
      <trkpt lat="48.0298" lon="-4.49778">
        <ele>72.72</ele>
        <time>2015-11-19T15:26:06Z</time>
      </trkpt>
      <trkpt lat="48.02985" lon="-4.49774">
        <ele>72.72</ele>
        <time>2015-11-19T15:26:10Z</time>
      </trkpt>
      <trkpt lat="48.02994" lon="-4.49766">
        <ele>72.72</ele>
        <time>2015-11-19T15:26:17Z</time>
      </trkpt>
      <trkpt lat="48.03014" lon="-4.49751">
        <ele>71.76</ele>
        <time>2015-11-19T15:26:33Z</time>
      </trkpt>
      <trkpt lat="48.0303" lon="-4.4974">
        <ele>71.27</ele>
        <time>2015-11-19T15:26:47Z</time>
      </trkpt>
      <trkpt lat="48.03046" lon="-4.49727">
        <ele>71.76</ele>
        <time>2015-11-19T15:27:01Z</time>
      </trkpt>
      <trkpt lat="48.03063" lon="-4.49713">
        <ele>71.76</ele>
        <time>2015-11-19T15:27:15Z</time>
      </trkpt>
      <trkpt lat="48.03079" lon="-4.497">
        <ele>70.79</ele>
        <time>2015-11-19T15:27:29Z</time>
      </trkpt>
      <trkpt lat="48.03097" lon="-4.49685">
        <ele>70.31</ele>
        <time>2015-11-19T15:27:44Z</time>
      </trkpt>
      <trkpt lat="48.03117" lon="-4.4967">
        <ele>69.83</ele>
        <time>2015-11-19T15:28:00Z</time>
      </trkpt>
      <trkpt lat="48.03133" lon="-4.49656">
        <ele>68.39</ele>
        <time>2015-11-19T15:28:14Z</time>
      </trkpt>
      <trkpt lat="48.03151" lon="-4.4964">
        <ele>66.95</ele>
        <time>2015-11-19T15:28:30Z</time>
      </trkpt>
      <trkpt lat="48.03166" lon="-4.49624">
        <ele>66.47</ele>
        <time>2015-11-19T15:28:44Z</time>
      </trkpt>
      <trkpt lat="48.03189" lon="-4.49604">
        <ele>64.55</ele>
        <time>2015-11-19T15:29:04Z</time>
      </trkpt>
      <trkpt lat="48.0319" lon="-4.49603">
        <ele>64.07</ele>
        <time>2015-11-19T15:29:05Z</time>
      </trkpt>
      <trkpt lat="48.03209" lon="-4.49584">
        <ele>61.66</ele>
        <time>2015-11-19T15:29:22Z</time>
      </trkpt>
      <trkpt lat="48.03223" lon="-4.4957">
        <ele>60.22</ele>
        <time>2015-11-19T15:29:35Z</time>
      </trkpt>
      <trkpt lat="48.03237" lon="-4.49556">
        <ele>59.74</ele>
        <time>2015-11-19T15:29:49Z</time>
      </trkpt>
      <trkpt lat="48.03239" lon="-4.49553">
        <ele>59.26</ele>
        <time>2015-11-19T15:29:51Z</time>
      </trkpt>
      <trkpt lat="48.03254" lon="-4.49538">
        <ele>57.34</ele>
        <time>2015-11-19T15:30:05Z</time>
      </trkpt>
      <trkpt lat="48.03268" lon="-4.49525">
        <ele>55.89</ele>
        <time>2015-11-19T15:30:18Z</time>
      </trkpt>
      <trkpt lat="48.03281" lon="-4.49513">
        <ele>54.45</ele>
        <time>2015-11-19T15:30:30Z</time>
      </trkpt>
      <trkpt lat="48.0329" lon="-4.49503">
        <ele>53.01</ele>
        <time>2015-11-19T15:30:39Z</time>
      </trkpt>
      <trkpt lat="48.03302" lon="-4.4949">
        <ele>50.13</ele>
        <time>2015-11-19T15:30:51Z</time>
      </trkpt>
      <trkpt lat="48.03316" lon="-4.49475">
        <ele>48.2</ele>
        <time>2015-11-19T15:31:04Z</time>
      </trkpt>
      <trkpt lat="48.03334" lon="-4.49454">
        <ele>45.8</ele>
        <time>2015-11-19T15:31:21Z</time>
      </trkpt>
      <trkpt lat="48.03343" lon="-4.49445">
        <ele>46.28</ele>
        <time>2015-11-19T15:31:33Z</time>
      </trkpt>
      <trkpt lat="48.03346" lon="-4.49438">
        <ele>45.8</ele>
        <time>2015-11-19T15:31:38Z</time>
      </trkpt>
      <trkpt lat="48.03351" lon="-4.4943">
        <ele>44.84</ele>
        <time>2015-11-19T15:31:43Z</time>
      </trkpt>
      <trkpt lat="48.03363" lon="-4.49409">
        <ele>43.4</ele>
        <time>2015-11-19T15:31:57Z</time>
      </trkpt>
      <trkpt lat="48.03373" lon="-4.49394">
        <ele>44.36</ele>
        <time>2015-11-19T15:32:08Z</time>
      </trkpt>
      <trkpt lat="48.03381" lon="-4.49383">
        <ele>43.4</ele>
        <time>2015-11-19T15:32:19Z</time>
      </trkpt>
      <trkpt lat="48.03384" lon="-4.49377">
        <ele>43.88</ele>
        <time>2015-11-19T15:32:23Z</time>
      </trkpt>
      <trkpt lat="48.03389" lon="-4.49372">
        <ele>43.88</ele>
        <time>2015-11-19T15:32:28Z</time>
      </trkpt>
      <trkpt lat="48.03391" lon="-4.49369">
        <ele>43.4</ele>
        <time>2015-11-19T15:32:30Z</time>
      </trkpt>
      <trkpt lat="48.03403" lon="-4.49354">
        <ele>41.95</ele>
        <time>2015-11-19T15:32:44Z</time>
      </trkpt>
      <trkpt lat="48.03415" lon="-4.49348">
        <ele>40.51</ele>
        <time>2015-11-19T15:32:54Z</time>
      </trkpt>
      <trkpt lat="48.03424" lon="-4.49347">
        <ele>41.47</ele>
        <time>2015-11-19T15:32:59Z</time>
      </trkpt>
      <trkpt lat="48.03435" lon="-4.49347">
        <ele>43.88</ele>
        <time>2015-11-19T15:33:07Z</time>
      </trkpt>
      <trkpt lat="48.03439" lon="-4.49334">
        <ele>41.95</ele>
        <time>2015-11-19T15:33:14Z</time>
      </trkpt>
      <trkpt lat="48.03445" lon="-4.49325">
        <ele>40.99</ele>
        <time>2015-11-19T15:33:21Z</time>
      </trkpt>
      <trkpt lat="48.03457" lon="-4.49308">
        <ele>40.99</ele>
        <time>2015-11-19T15:33:35Z</time>
      </trkpt>
      <trkpt lat="48.03471" lon="-4.4929">
        <ele>39.55</ele>
        <time>2015-11-19T15:33:49Z</time>
      </trkpt>
      <trkpt lat="48.03474" lon="-4.49282">
        <ele>38.59</ele>
        <time>2015-11-19T15:33:54Z</time>
      </trkpt>
      <trkpt lat="48.0349" lon="-4.49262">
        <ele>36.67</ele>
        <time>2015-11-19T15:34:10Z</time>
      </trkpt>
      <trkpt lat="48.035" lon="-4.49244">
        <ele>35.23</ele>
        <time>2015-11-19T15:34:23Z</time>
      </trkpt>
      <trkpt lat="48.03512" lon="-4.49225">
        <ele>33.78</ele>
        <time>2015-11-19T15:34:36Z</time>
      </trkpt>
      <trkpt lat="48.03524" lon="-4.49204">
        <ele>33.78</ele>
        <time>2015-11-19T15:34:50Z</time>
      </trkpt>
      <trkpt lat="48.03534" lon="-4.49185">
        <ele>32.34</ele>
        <time>2015-11-19T15:35:02Z</time>
      </trkpt>
      <trkpt lat="48.03535" lon="-4.49182">
        <ele>32.34</ele>
        <time>2015-11-19T15:35:04Z</time>
      </trkpt>
      <trkpt lat="48.03538" lon="-4.49175">
        <ele>32.34</ele>
        <time>2015-11-19T15:35:08Z</time>
      </trkpt>
      <trkpt lat="48.03543" lon="-4.49159">
        <ele>31.38</ele>
        <time>2015-11-19T15:35:19Z</time>
      </trkpt>
      <trkpt lat="48.03552" lon="-4.49137">
        <ele>30.42</ele>
        <time>2015-11-19T15:35:33Z</time>
      </trkpt>
      <trkpt lat="48.03559" lon="-4.49117">
        <ele>27.53</ele>
        <time>2015-11-19T15:35:45Z</time>
      </trkpt>
      <trkpt lat="48.03563" lon="-4.49106">
        <ele>27.05</ele>
        <time>2015-11-19T15:35:52Z</time>
      </trkpt>
      <trkpt lat="48.03564" lon="-4.49102">
        <ele>26.09</ele>
        <time>2015-11-19T15:35:55Z</time>
      </trkpt>
      <trkpt lat="48.03566" lon="-4.49097">
        <ele>25.13</ele>
        <time>2015-11-19T15:35:58Z</time>
      </trkpt>
      <trkpt lat="48.03568" lon="-4.4909">
        <ele>24.65</ele>
        <time>2015-11-19T15:36:02Z</time>
      </trkpt>
      <trkpt lat="48.03574" lon="-4.4907">
        <ele>22.25</ele>
        <time>2015-11-19T15:36:15Z</time>
      </trkpt>
      <trkpt lat="48.03578" lon="-4.49057">
        <ele>20.81</ele>
        <time>2015-11-19T15:36:23Z</time>
      </trkpt>
      <trkpt lat="48.03585" lon="-4.49031">
        <ele>16.96</ele>
        <time>2015-11-19T15:36:39Z</time>
      </trkpt>
      <trkpt lat="48.03589" lon="-4.49006">
        <ele>15.04</ele>
        <time>2015-11-19T15:36:53Z</time>
      </trkpt>
      <trkpt lat="48.0359" lon="-4.49001">
        <ele>15.04</ele>
        <time>2015-11-19T15:36:57Z</time>
      </trkpt>
      <trkpt lat="48.03594" lon="-4.48971">
        <ele>11.19</ele>
        <time>2015-11-19T15:37:13Z</time>
      </trkpt>
      <trkpt lat="48.03592" lon="-4.48964">
        <ele>10.71</ele>
        <time>2015-11-19T15:37:19Z</time>
      </trkpt>
      <trkpt lat="48.03583" lon="-4.48961">
        <ele>11.67</ele>
        <time>2015-11-19T15:37:32Z</time>
      </trkpt>
      <trkpt lat="48.03585" lon="-4.48963">
        <ele>11.19</ele>
        <time>2015-11-19T15:37:59Z</time>
      </trkpt>
      <trkpt lat="48.03585" lon="-4.48963">
        <ele>11.19</ele>
        <time>2015-11-19T15:38:00Z</time>
      </trkpt>
      <trkpt lat="48.03592" lon="-4.48955">
        <ele>12.15</ele>
        <time>2015-11-19T15:38:07Z</time>
      </trkpt>
      <trkpt lat="48.03598" lon="-4.48929">
        <ele>11.19</ele>
        <time>2015-11-19T15:38:21Z</time>
      </trkpt>
      <trkpt lat="48.03604" lon="-4.48907">
        <ele>8.79</ele>
        <time>2015-11-19T15:38:34Z</time>
      </trkpt>
      <trkpt lat="48.03606" lon="-4.48902">
        <ele>7.83</ele>
        <time>2015-11-19T15:38:37Z</time>
      </trkpt>
      <trkpt lat="48.03612" lon="-4.48877">
        <ele>3.98</ele>
        <time>2015-11-19T15:38:52Z</time>
      </trkpt>
      <trkpt lat="48.03613" lon="-4.48868">
        <ele>4.46</ele>
        <time>2015-11-19T15:38:56Z</time>
      </trkpt>
      <trkpt lat="48.03614" lon="-4.48864">
        <ele>4.94</ele>
        <time>2015-11-19T15:38:58Z</time>
      </trkpt>
      <trkpt lat="48.03614" lon="-4.48849">
        <ele>7.35</ele>
        <time>2015-11-19T15:39:04Z</time>
      </trkpt>
      <trkpt lat="48.03615" lon="-4.48839">
        <ele>10.23</ele>
        <time>2015-11-19T15:39:08Z</time>
      </trkpt>
      <trkpt lat="48.03615" lon="-4.48831">
        <ele>11.19</ele>
        <time>2015-11-19T15:39:12Z</time>
      </trkpt>
      <trkpt lat="48.03616" lon="-4.48828">
        <ele>12.15</ele>
        <time>2015-11-19T15:39:14Z</time>
      </trkpt>
      <trkpt lat="48.03617" lon="-4.48811">
        <ele>14.08</ele>
        <time>2015-11-19T15:39:22Z</time>
      </trkpt>
      <trkpt lat="48.03619" lon="-4.488">
        <ele>14.56</ele>
        <time>2015-11-19T15:39:28Z</time>
      </trkpt>
      <trkpt lat="48.03621" lon="-4.48784">
        <ele>15.52</ele>
        <time>2015-11-19T15:39:36Z</time>
      </trkpt>
      <trkpt lat="48.03625" lon="-4.48755">
        <ele>16.48</ele>
        <time>2015-11-19T15:39:52Z</time>
      </trkpt>
      <trkpt lat="48.03628" lon="-4.48727">
        <ele>19.36</ele>
        <time>2015-11-19T15:40:07Z</time>
      </trkpt>
      <trkpt lat="48.03628" lon="-4.48725">
        <ele>19.36</ele>
        <time>2015-11-19T15:40:08Z</time>
      </trkpt>
      <trkpt lat="48.03631" lon="-4.48705">
        <ele>19.36</ele>
        <time>2015-11-19T15:40:19Z</time>
      </trkpt>
      <trkpt lat="48.03632" lon="-4.48675">
        <ele>21.29</ele>
        <time>2015-11-19T15:40:35Z</time>
      </trkpt>
      <trkpt lat="48.03632" lon="-4.48673">
        <ele>21.77</ele>
        <time>2015-11-19T15:40:36Z</time>
      </trkpt>
      <trkpt lat="48.03632" lon="-4.48664">
        <ele>22.25</ele>
        <time>2015-11-19T15:40:40Z</time>
      </trkpt>
      <trkpt lat="48.0363" lon="-4.48642">
        <ele>22.25</ele>
        <time>2015-11-19T15:40:51Z</time>
      </trkpt>
      <trkpt lat="48.03628" lon="-4.48628">
        <ele>22.25</ele>
        <time>2015-11-19T15:40:58Z</time>
      </trkpt>
      <trkpt lat="48.03627" lon="-4.48622">
        <ele>22.25</ele>
        <time>2015-11-19T15:41:01Z</time>
      </trkpt>
      <trkpt lat="48.03627" lon="-4.48612">
        <ele>21.77</ele>
        <time>2015-11-19T15:41:06Z</time>
      </trkpt>
      <trkpt lat="48.03623" lon="-4.48585">
        <ele>25.13</ele>
        <time>2015-11-19T15:41:20Z</time>
      </trkpt>
      <trkpt lat="48.0362" lon="-4.48557">
        <ele>27.53</ele>
        <time>2015-11-19T15:41:34Z</time>
      </trkpt>
      <trkpt lat="48.03616" lon="-4.48533">
        <ele>28.5</ele>
        <time>2015-11-19T15:41:46Z</time>
      </trkpt>
      <trkpt lat="48.03614" lon="-4.48516">
        <ele>29.46</ele>
        <time>2015-11-19T15:41:54Z</time>
      </trkpt>
      <trkpt lat="48.03609" lon="-4.48489">
        <ele>30.42</ele>
        <time>2015-11-19T15:42:07Z</time>
      </trkpt>
      <trkpt lat="48.03607" lon="-4.48459">
        <ele>31.86</ele>
        <time>2015-11-19T15:42:22Z</time>
      </trkpt>
      <trkpt lat="48.03604" lon="-4.48433">
        <ele>32.34</ele>
        <time>2015-11-19T15:42:35Z</time>
      </trkpt>
      <trkpt lat="48.03604" lon="-4.48426">
        <ele>32.82</ele>
        <time>2015-11-19T15:42:39Z</time>
      </trkpt>
      <trkpt lat="48.03613" lon="-4.48416">
        <ele>32.82</ele>
        <time>2015-11-19T15:42:48Z</time>
      </trkpt>
      <trkpt lat="48.03628" lon="-4.48406">
        <ele>29.94</ele>
        <time>2015-11-19T15:43:04Z</time>
      </trkpt>
      <trkpt lat="48.03633" lon="-4.48405">
        <ele>28.98</ele>
        <time>2015-11-19T15:43:12Z</time>
      </trkpt>
      <trkpt lat="48.03644" lon="-4.484">
        <ele>27.53</ele>
        <time>2015-11-19T15:43:24Z</time>
      </trkpt>
      <trkpt lat="48.03649" lon="-4.48404">
        <ele>23.21</ele>
        <time>2015-11-19T15:43:39Z</time>
      </trkpt>
      <trkpt lat="48.03664" lon="-4.48422">
        <ele>17.92</ele>
        <time>2015-11-19T15:43:51Z</time>
      </trkpt>
      <trkpt lat="48.03669" lon="-4.48427">
        <ele>16</ele>
        <time>2015-11-19T15:43:55Z</time>
      </trkpt>
      <trkpt lat="48.03674" lon="-4.48432">
        <ele>14.56</ele>
        <time>2015-11-19T15:44:00Z</time>
      </trkpt>
      <trkpt lat="48.03674" lon="-4.48435">
        <ele>13.6</ele>
        <time>2015-11-19T15:44:02Z</time>
      </trkpt>
      <trkpt lat="48.03677" lon="-4.4845">
        <ele>11.67</ele>
        <time>2015-11-19T15:44:10Z</time>
      </trkpt>
      <trkpt lat="48.03682" lon="-4.48458">
        <ele>15.04</ele>
        <time>2015-11-19T15:44:15Z</time>
      </trkpt>
      <trkpt lat="48.03687" lon="-4.48471">
        <ele>16</ele>
        <time>2015-11-19T15:44:23Z</time>
      </trkpt>
      <trkpt lat="48.0369" lon="-4.48477">
        <ele>16.96</ele>
        <time>2015-11-19T15:44:27Z</time>
      </trkpt>
      <trkpt lat="48.03694" lon="-4.48491">
        <ele>18.88</ele>
        <time>2015-11-19T15:44:35Z</time>
      </trkpt>
      <trkpt lat="48.03705" lon="-4.48514">
        <ele>17.44</ele>
        <time>2015-11-19T15:44:49Z</time>
      </trkpt>
      <trkpt lat="48.03706" lon="-4.48515">
        <ele>17.92</ele>
        <time>2015-11-19T15:44:50Z</time>
      </trkpt>
      <trkpt lat="48.0371" lon="-4.48527">
        <ele>16</ele>
        <time>2015-11-19T15:44:57Z</time>
      </trkpt>
      <trkpt lat="48.03719" lon="-4.48548">
        <ele>12.15</ele>
        <time>2015-11-19T15:45:09Z</time>
      </trkpt>
      <trkpt lat="48.03723" lon="-4.48553">
        <ele>12.15</ele>
        <time>2015-11-19T15:45:14Z</time>
      </trkpt>
      <trkpt lat="48.03727" lon="-4.48556">
        <ele>12.63</ele>
        <time>2015-11-19T15:45:18Z</time>
      </trkpt>
      <trkpt lat="48.03745" lon="-4.48566">
        <ele>13.12</ele>
        <time>2015-11-19T15:45:32Z</time>
      </trkpt>
      <trkpt lat="48.0376" lon="-4.48572">
        <ele>12.63</ele>
        <time>2015-11-19T15:45:44Z</time>
      </trkpt>
      <trkpt lat="48.03765" lon="-4.48574">
        <ele>11.19</ele>
        <time>2015-11-19T15:45:48Z</time>
      </trkpt>
      <trkpt lat="48.03777" lon="-4.48577">
        <ele>8.79</ele>
        <time>2015-11-19T15:45:59Z</time>
      </trkpt>
      <trkpt lat="48.03785" lon="-4.48581">
        <ele>7.35</ele>
        <time>2015-11-19T15:46:05Z</time>
      </trkpt>
      <trkpt lat="48.03791" lon="-4.48588">
        <ele>7.83</ele>
        <time>2015-11-19T15:46:12Z</time>
      </trkpt>
      <trkpt lat="48.03794" lon="-4.48595">
        <ele>7.35</ele>
        <time>2015-11-19T15:46:18Z</time>
      </trkpt>
      <trkpt lat="48.03795" lon="-4.48599">
        <ele>7.35</ele>
        <time>2015-11-19T15:46:20Z</time>
      </trkpt>
      <trkpt lat="48.03809" lon="-4.4861">
        <ele>8.31</ele>
        <time>2015-11-19T15:46:33Z</time>
      </trkpt>
      <trkpt lat="48.0381" lon="-4.48612">
        <ele>7.83</ele>
        <time>2015-11-19T15:46:35Z</time>
      </trkpt>
      <trkpt lat="48.03811" lon="-4.48617">
        <ele>7.83</ele>
        <time>2015-11-19T15:46:38Z</time>
      </trkpt>
      <trkpt lat="48.03814" lon="-4.48628">
        <ele>7.35</ele>
        <time>2015-11-19T15:46:44Z</time>
      </trkpt>
      <trkpt lat="48.0382" lon="-4.48637">
        <ele>6.39</ele>
        <time>2015-11-19T15:46:51Z</time>
      </trkpt>
      <trkpt lat="48.0383" lon="-4.48652">
        <ele>5.91</ele>
        <time>2015-11-19T15:47:02Z</time>
      </trkpt>
      <trkpt lat="48.03834" lon="-4.48662">
        <ele>5.91</ele>
        <time>2015-11-19T15:47:08Z</time>
      </trkpt>
      <trkpt lat="48.03849" lon="-4.48682">
        <ele>5.42</ele>
        <time>2015-11-19T15:47:23Z</time>
      </trkpt>
      <trkpt lat="48.03861" lon="-4.487">
        <ele>5.42</ele>
        <time>2015-11-19T15:47:36Z</time>
      </trkpt>
      <trkpt lat="48.03873" lon="-4.48717">
        <ele>5.91</ele>
        <time>2015-11-19T15:47:49Z</time>
      </trkpt>
      <trkpt lat="48.03885" lon="-4.48736">
        <ele>4.94</ele>
        <time>2015-11-19T15:48:03Z</time>
      </trkpt>
      <trkpt lat="48.03886" lon="-4.48737">
        <ele>4.94</ele>
        <time>2015-11-19T15:48:04Z</time>
      </trkpt>
      <trkpt lat="48.0389" lon="-4.48744">
        <ele>3.5</ele>
        <time>2015-11-19T15:48:09Z</time>
      </trkpt>
      <trkpt lat="48.03903" lon="-4.48755">
        <ele>2.54</ele>
        <time>2015-11-19T15:48:21Z</time>
      </trkpt>
      <trkpt lat="48.03907" lon="-4.48757">
        <ele>2.54</ele>
        <time>2015-11-19T15:48:25Z</time>
      </trkpt>
      <trkpt lat="48.03916" lon="-4.48758">
        <ele>1.1</ele>
        <time>2015-11-19T15:48:33Z</time>
      </trkpt>
      <trkpt lat="48.0392" lon="-4.48758">
        <ele>0.62</ele>
        <time>2015-11-19T15:48:37Z</time>
      </trkpt>
      <trkpt lat="48.03933" lon="-4.48769">
        <ele>1.58</ele>
        <time>2015-11-19T15:48:49Z</time>
      </trkpt>
      <trkpt lat="48.0395" lon="-4.48768">
        <ele>3.98</ele>
        <time>2015-11-19T15:49:04Z</time>
      </trkpt>
      <trkpt lat="48.03961" lon="-4.48774">
        <ele>6.39</ele>
        <time>2015-11-19T15:49:18Z</time>
      </trkpt>
      <trkpt lat="48.03969" lon="-4.48779">
        <ele>8.31</ele>
        <time>2015-11-19T15:49:29Z</time>
      </trkpt>
      <trkpt lat="48.03983" lon="-4.4878">
        <ele>10.23</ele>
        <time>2015-11-19T15:49:48Z</time>
      </trkpt>
      <trkpt lat="48.03996" lon="-4.4878">
        <ele>15.52</ele>
        <time>2015-11-19T15:50:11Z</time>
      </trkpt>
      <trkpt lat="48.04012" lon="-4.48784">
        <ele>21.77</ele>
        <time>2015-11-19T15:50:28Z</time>
      </trkpt>
      <trkpt lat="48.04022" lon="-4.48782">
        <ele>23.69</ele>
        <time>2015-11-19T15:50:41Z</time>
      </trkpt>
      <trkpt lat="48.04035" lon="-4.48776">
        <ele>28.02</ele>
        <time>2015-11-19T15:50:59Z</time>
      </trkpt>
      <trkpt lat="48.04043" lon="-4.48776">
        <ele>31.86</ele>
        <time>2015-11-19T15:51:15Z</time>
      </trkpt>
      <trkpt lat="48.04045" lon="-4.48774">
        <ele>32.34</ele>
        <time>2015-11-19T15:51:18Z</time>
      </trkpt>
      <trkpt lat="48.04046" lon="-4.48755">
        <ele>32.82</ele>
        <time>2015-11-19T15:51:31Z</time>
      </trkpt>
      <trkpt lat="48.04048" lon="-4.48736">
        <ele>26.57</ele>
        <time>2015-11-19T15:51:45Z</time>
      </trkpt>
      <trkpt lat="48.0405" lon="-4.48733">
        <ele>26.09</ele>
        <time>2015-11-19T15:51:47Z</time>
      </trkpt>
      <trkpt lat="48.04052" lon="-4.48727">
        <ele>25.13</ele>
        <time>2015-11-19T15:51:50Z</time>
      </trkpt>
      <trkpt lat="48.04054" lon="-4.48723">
        <ele>25.13</ele>
        <time>2015-11-19T15:51:53Z</time>
      </trkpt>
      <trkpt lat="48.04058" lon="-4.48713">
        <ele>26.57</ele>
        <time>2015-11-19T15:51:59Z</time>
      </trkpt>
      <trkpt lat="48.0406" lon="-4.48705">
        <ele>28.02</ele>
        <time>2015-11-19T15:52:03Z</time>
      </trkpt>
      <trkpt lat="48.04063" lon="-4.48696">
        <ele>29.94</ele>
        <time>2015-11-19T15:52:09Z</time>
      </trkpt>
      <trkpt lat="48.04067" lon="-4.48692">
        <ele>32.82</ele>
        <time>2015-11-19T15:52:17Z</time>
      </trkpt>
      <trkpt lat="48.04069" lon="-4.48692">
        <ele>33.3</ele>
        <time>2015-11-19T15:52:20Z</time>
      </trkpt>
      <trkpt lat="48.04079" lon="-4.48675">
        <ele>33.78</ele>
        <time>2015-11-19T15:52:33Z</time>
      </trkpt>
      <trkpt lat="48.04083" lon="-4.48662">
        <ele>33.3</ele>
        <time>2015-11-19T15:52:45Z</time>
      </trkpt>
    </trkseg>
  </trk>
</gpx>